<?xml version='1.0' encoding='UTF-8'?><gpx version="1.1" creator="JPX - https://github.com/jenetics/jpx" xmlns="http://www.topografix.com/GPX/1/1"><trk><trkseg><trkpt lat="44.859505" lon="9.5080833"><ele>315.0</ele><time>2026-03-30T12:17:40.003Z</time></trkpt><trkpt lat="44.8595683" lon="9.5079833"><ele>315.0</ele><time>2026-03-30T12:17:45.996Z</time></trkpt><trkpt lat="44.8596133" lon="9.50791"><ele>315.0</ele><time>2026-03-30T12:17:53Z</time></trkpt><trkpt lat="44.8596407" lon="9.5078194"><ele>315.0</ele><time>2026-03-30T12:17:58.995Z</time></trkpt><trkpt lat="44.8596846" lon="9.5077361"><ele>315.0</ele><time>2026-03-30T12:18:05.006Z</time></trkpt><trkpt lat="44.8597062" lon="9.5076468"><ele>315.0</ele><time>2026-03-30T12:18:10.997Z</time></trkpt><trkpt lat="44.8597433" lon="9.5075619"><ele>315.0</ele><time>2026-03-30T12:18:16.935Z</time></trkpt><trkpt lat="44.8597863" lon="9.507478"><ele>313.85714285714283</ele><time>2026-03-30T12:18:22.993Z</time></trkpt><trkpt lat="44.8598202" lon="9.5073974"><ele>312.7142857142857</ele><time>2026-03-30T12:18:28.911Z</time></trkpt><trkpt lat="44.8598526" lon="9.5073199"><ele>311.57142857142856</ele><time>2026-03-30T12:18:33.999Z</time></trkpt><trkpt lat="44.8598891" lon="9.5072464"><ele>310.42857142857144</ele><time>2026-03-30T12:18:39.996Z</time></trkpt><trkpt lat="44.8599326" lon="9.5071633"><ele>309.2857142857143</ele><time>2026-03-30T12:18:45.998Z</time></trkpt><trkpt lat="44.8599855" lon="9.5070981"><ele>308.1428571428571</ele><time>2026-03-30T12:18:51.028Z</time></trkpt><trkpt lat="44.8600287" lon="9.5070262"><ele>307.0</ele><time>2026-03-30T12:18:56.064Z</time></trkpt><trkpt lat="44.8600766" lon="9.5069488"><ele>307.57142857142856</ele><time>2026-03-30T12:19:01.993Z</time></trkpt><trkpt lat="44.8600975" lon="9.5068632"><ele>308.1428571428571</ele><time>2026-03-30T12:19:07.93Z</time></trkpt><trkpt lat="44.8601626" lon="9.5067388"><ele>308.71428571428567</ele><time>2026-03-30T12:19:36.649Z</time></trkpt><trkpt lat="44.8602196" lon="9.5066863"><ele>309.2857142857143</ele><time>2026-03-30T12:19:40.987Z</time></trkpt><trkpt lat="44.8602689" lon="9.5066302"><ele>309.8571428571429</ele><time>2026-03-30T12:19:44.991Z</time></trkpt><trkpt lat="44.860313" lon="9.5065544"><ele>310.4285714285714</ele><time>2026-03-30T12:19:49.991Z</time></trkpt><trkpt lat="44.8603484" lon="9.5064701"><ele>311.0</ele><time>2026-03-30T12:19:55.062Z</time></trkpt><trkpt lat="44.8603967" lon="9.5064034"><ele>311.0</ele><time>2026-03-30T12:19:58.996Z</time></trkpt><trkpt lat="44.8604382" lon="9.5063337"><ele>311.0</ele><time>2026-03-30T12:20:03.041Z</time></trkpt><trkpt lat="44.8604772" lon="9.5062498"><ele>311.0</ele><time>2026-03-30T12:20:08.925Z</time></trkpt><trkpt lat="44.8604941" lon="9.5061566"><ele>311.0</ele><time>2026-03-30T12:20:15.034Z</time></trkpt><trkpt lat="44.8604931" lon="9.5060523"><ele>311.0</ele><time>2026-03-30T12:20:21.03Z</time></trkpt><trkpt lat="44.8604675" lon="9.5059559"><ele>311.0</ele><time>2026-03-30T12:20:26.926Z</time></trkpt><trkpt lat="44.8604693" lon="9.50586"><ele>311.0</ele><time>2026-03-30T12:20:32.063Z</time></trkpt><trkpt lat="44.8604706" lon="9.5057591"><ele>310.1428571428571</ele><time>2026-03-30T12:20:37.047Z</time></trkpt><trkpt lat="44.8604726" lon="9.5056575"><ele>309.28571428571433</ele><time>2026-03-30T12:20:43.005Z</time></trkpt><trkpt lat="44.8604841" lon="9.5055678"><ele>308.42857142857144</ele><time>2026-03-30T12:20:48.002Z</time></trkpt><trkpt lat="44.8604998" lon="9.5054764"><ele>307.57142857142856</ele><time>2026-03-30T12:20:52.988Z</time></trkpt><trkpt lat="44.860508" lon="9.5053826"><ele>306.71428571428567</ele><time>2026-03-30T12:20:59.066Z</time></trkpt><trkpt lat="44.8605256" lon="9.5052941"><ele>305.8571428571429</ele><time>2026-03-30T12:21:04.002Z</time></trkpt><trkpt lat="44.8605506" lon="9.5052041"><ele>305.0</ele><time>2026-03-30T12:21:09.005Z</time></trkpt><trkpt lat="44.8605935" lon="9.5051367"><ele>305.14285714285717</ele><time>2026-03-30T12:21:16.025Z</time></trkpt><trkpt lat="44.8606304" lon="9.5050454"><ele>305.2857142857143</ele><time>2026-03-30T12:21:23.032Z</time></trkpt><trkpt lat="44.8606625" lon="9.5049597"><ele>305.42857142857144</ele><time>2026-03-30T12:21:29.027Z</time></trkpt><trkpt lat="44.8607062" lon="9.5048895"><ele>305.57142857142856</ele><time>2026-03-30T12:21:33.005Z</time></trkpt><trkpt lat="44.8607614" lon="9.5048232"><ele>305.7142857142857</ele><time>2026-03-30T12:21:38.022Z</time></trkpt><trkpt lat="44.8608288" lon="9.5047702"><ele>305.85714285714283</ele><time>2026-03-30T12:21:44.085Z</time></trkpt><trkpt lat="44.8608957" lon="9.5047365"><ele>306.0</ele><time>2026-03-30T12:21:48.001Z</time></trkpt><trkpt lat="44.8609566" lon="9.5047052"><ele>306.0</ele><time>2026-03-30T12:21:53.07Z</time></trkpt><trkpt lat="44.8610168" lon="9.5046728"><ele>306.0</ele><time>2026-03-30T12:22:00.045Z</time></trkpt><trkpt lat="44.8610623" lon="9.5046073"><ele>306.0</ele><time>2026-03-30T12:22:05.994Z</time></trkpt><trkpt lat="44.8610913" lon="9.5045232"><ele>306.0</ele><time>2026-03-30T12:22:12.079Z</time></trkpt><trkpt lat="44.861089" lon="9.5044196"><ele>306.0</ele><time>2026-03-30T12:22:16.996Z</time></trkpt><trkpt lat="44.8610679" lon="9.5043209"><ele>306.0</ele><time>2026-03-30T12:22:22.994Z</time></trkpt><trkpt lat="44.8610424" lon="9.5042252"><ele>306.0</ele><time>2026-03-30T12:22:29.046Z</time></trkpt><trkpt lat="44.8610181" lon="9.5041285"><ele>305.57142857142856</ele><time>2026-03-30T12:22:36.063Z</time></trkpt><trkpt lat="44.861005" lon="9.5040288"><ele>305.14285714285717</ele><time>2026-03-30T12:22:42.058Z</time></trkpt><trkpt lat="44.8609881" lon="9.5039339"><ele>304.7142857142857</ele><time>2026-03-30T12:22:47.923Z</time></trkpt><trkpt lat="44.8609761" lon="9.5038445"><ele>304.2857142857143</ele><time>2026-03-30T12:22:52.929Z</time></trkpt><trkpt lat="44.860966" lon="9.5037448"><ele>303.85714285714283</ele><time>2026-03-30T12:22:58.008Z</time></trkpt><trkpt lat="44.8609578" lon="9.5036541"><ele>303.42857142857144</ele><time>2026-03-30T12:23:03.043Z</time></trkpt><trkpt lat="44.8609601" lon="9.5035604"><ele>303.0</ele><time>2026-03-30T12:23:08.08Z</time></trkpt><trkpt lat="44.8609592" lon="9.5034627"><ele>303.0</ele><time>2026-03-30T12:23:14.085Z</time></trkpt><trkpt lat="44.8609616" lon="9.503367"><ele>303.0</ele><time>2026-03-30T12:23:18.94Z</time></trkpt><trkpt lat="44.8609553" lon="9.5032709"><ele>303.0</ele><time>2026-03-30T12:23:24.029Z</time></trkpt><trkpt lat="44.8609607" lon="9.5031799"><ele>303.0</ele><time>2026-03-30T12:23:29Z</time></trkpt><trkpt lat="44.8609754" lon="9.5030883"><ele>303.0</ele><time>2026-03-30T12:23:34.009Z</time></trkpt><trkpt lat="44.8610014" lon="9.5029977"><ele>303.0</ele><time>2026-03-30T12:23:40.004Z</time></trkpt><trkpt lat="44.8610424" lon="9.5029125"><ele>303.0</ele><time>2026-03-30T12:23:46.003Z</time></trkpt><trkpt lat="44.8610794" lon="9.5028279"><ele>303.0</ele><time>2026-03-30T12:23:51.994Z</time></trkpt><trkpt lat="44.8611074" lon="9.5027451"><ele>303.0</ele><time>2026-03-30T12:23:56.993Z</time></trkpt><trkpt lat="44.8611088" lon="9.5026395"><ele>303.0</ele><time>2026-03-30T12:24:03.002Z</time></trkpt><trkpt lat="44.8611364" lon="9.5025588"><ele>303.0</ele><time>2026-03-30T12:24:08.039Z</time></trkpt><trkpt lat="44.8611709" lon="9.502484"><ele>303.0</ele><time>2026-03-30T12:24:14.003Z</time></trkpt><trkpt lat="44.8612009" lon="9.5024032"><ele>303.0</ele><time>2026-03-30T12:24:20.03Z</time></trkpt><trkpt lat="44.8612307" lon="9.5023245"><ele>303.0</ele><time>2026-03-30T12:24:25.992Z</time></trkpt><trkpt lat="44.8612667" lon="9.5022391"><ele>303.0</ele><time>2026-03-30T12:24:32.022Z</time></trkpt><trkpt lat="44.8613093" lon="9.5021649"><ele>303.0</ele><time>2026-03-30T12:24:37.058Z</time></trkpt><trkpt lat="44.8613683" lon="9.5021022"><ele>303.0</ele><time>2026-03-30T12:24:43.046Z</time></trkpt><trkpt lat="44.8614287" lon="9.5020349"><ele>303.0</ele><time>2026-03-30T12:24:49.041Z</time></trkpt><trkpt lat="44.8614645" lon="9.5019473"><ele>303.0</ele><time>2026-03-30T12:24:55.085Z</time></trkpt><trkpt lat="44.8615064" lon="9.5018675"><ele>303.0</ele><time>2026-03-30T12:25:01.998Z</time></trkpt><trkpt lat="44.8615226" lon="9.5017802"><ele>303.0</ele><time>2026-03-30T12:25:07.029Z</time></trkpt><trkpt lat="44.8615283" lon="9.5016848"><ele>302.8571428571429</ele><time>2026-03-30T12:25:12.064Z</time></trkpt><trkpt lat="44.8615235" lon="9.5015952"><ele>302.7142857142857</ele><time>2026-03-30T12:25:16.998Z</time></trkpt><trkpt lat="44.8615154" lon="9.5015009"><ele>302.57142857142856</ele><time>2026-03-30T12:25:22.998Z</time></trkpt><trkpt lat="44.8615021" lon="9.5014101"><ele>302.42857142857144</ele><time>2026-03-30T12:25:28.973Z</time></trkpt><trkpt lat="44.8614778" lon="9.5012779"><ele>302.2857142857143</ele><time>2026-03-30T12:25:57.031Z</time></trkpt><trkpt lat="44.8614652" lon="9.5011658"><ele>302.14285714285717</ele><time>2026-03-30T12:26:02.09Z</time></trkpt><trkpt lat="44.8614545" lon="9.501068"><ele>302.0</ele><time>2026-03-30T12:26:06.998Z</time></trkpt><trkpt lat="44.8614346" lon="9.5009686"><ele>301.8571428571429</ele><time>2026-03-30T12:26:12.022Z</time></trkpt><trkpt lat="44.8614043" lon="9.5008826"><ele>301.7142857142857</ele><time>2026-03-30T12:26:17.089Z</time></trkpt><trkpt lat="44.8613767" lon="9.5007923"><ele>301.57142857142856</ele><time>2026-03-30T12:26:21.998Z</time></trkpt><trkpt lat="44.8613391" lon="9.5006978"><ele>301.42857142857144</ele><time>2026-03-30T12:26:27Z</time></trkpt><trkpt lat="44.8613138" lon="9.500599"><ele>301.2857142857143</ele><time>2026-03-30T12:26:32.046Z</time></trkpt><trkpt lat="44.8612863" lon="9.5005099"><ele>301.14285714285717</ele><time>2026-03-30T12:26:37.064Z</time></trkpt><trkpt lat="44.8612469" lon="9.5004401"><ele>301.0</ele><time>2026-03-30T12:26:41.999Z</time></trkpt><trkpt lat="44.8612215" lon="9.5003538"><ele>301.2857142857143</ele><time>2026-03-30T12:26:47.996Z</time></trkpt><trkpt lat="44.8612015" lon="9.5002586"><ele>301.57142857142856</ele><time>2026-03-30T12:26:53.111Z</time></trkpt><trkpt lat="44.8611627" lon="9.5001772"><ele>301.8571428571429</ele><time>2026-03-30T12:26:59.525Z</time></trkpt><trkpt lat="44.8611374" lon="9.5000879"><ele>302.1428571428571</ele><time>2026-03-30T12:27:04.701Z</time></trkpt><trkpt lat="44.8611165" lon="9.4999982"><ele>302.42857142857144</ele><time>2026-03-30T12:27:10.06Z</time></trkpt><trkpt lat="44.861086" lon="9.4999066"><ele>302.7142857142857</ele><time>2026-03-30T12:27:16.984Z</time></trkpt><trkpt lat="44.861074" lon="9.4998184"><ele>303.0</ele><time>2026-03-30T12:27:21.912Z</time></trkpt><trkpt lat="44.861054" lon="9.4997147"><ele>303.0</ele><time>2026-03-30T12:27:28.047Z</time></trkpt><trkpt lat="44.861031" lon="9.4996255"><ele>303.0</ele><time>2026-03-30T12:27:33Z</time></trkpt><trkpt lat="44.8610159" lon="9.4995376"><ele>303.0</ele><time>2026-03-30T12:27:38.027Z</time></trkpt><trkpt lat="44.8609687" lon="9.4994744"><ele>303.0</ele><time>2026-03-30T12:27:42.887Z</time></trkpt><trkpt lat="44.8609304" lon="9.4994026"><ele>303.0</ele><time>2026-03-30T12:27:49.03Z</time></trkpt><trkpt lat="44.8608837" lon="9.4993399"><ele>303.0</ele><time>2026-03-30T12:27:57.085Z</time></trkpt><trkpt lat="44.8608311" lon="9.4992882"><ele>303.0</ele><time>2026-03-30T12:28:04.021Z</time></trkpt><trkpt lat="44.8607815" lon="9.4992159"><ele>301.57142857142856</ele><time>2026-03-30T12:28:10.999Z</time></trkpt><trkpt lat="44.8607408" lon="9.4991398"><ele>300.1428571428571</ele><time>2026-03-30T12:28:17.89Z</time></trkpt><trkpt lat="44.8607147" lon="9.4990444"><ele>298.71428571428567</ele><time>2026-03-30T12:28:24.046Z</time></trkpt><trkpt lat="44.8606936" lon="9.4989517"><ele>297.2857142857143</ele><time>2026-03-30T12:28:29.082Z</time></trkpt><trkpt lat="44.8606643" lon="9.4988555"><ele>295.85714285714283</ele><time>2026-03-30T12:28:34.996Z</time></trkpt><trkpt lat="44.8606397" lon="9.4987654"><ele>294.4285714285714</ele><time>2026-03-30T12:28:41.085Z</time></trkpt><trkpt lat="44.8606065" lon="9.4986751"><ele>293.0</ele><time>2026-03-30T12:28:47.108Z</time></trkpt><trkpt lat="44.8605872" lon="9.4985872"><ele>292.85714285714283</ele><time>2026-03-30T12:28:51.99Z</time></trkpt><trkpt lat="44.8605473" lon="9.4985168"><ele>292.7142857142857</ele><time>2026-03-30T12:28:57.021Z</time></trkpt><trkpt lat="44.8605185" lon="9.4984207"><ele>292.57142857142856</ele><time>2026-03-30T12:29:03.018Z</time></trkpt><trkpt lat="44.8604988" lon="9.4983329"><ele>292.42857142857144</ele><time>2026-03-30T12:29:08.022Z</time></trkpt><trkpt lat="44.8604976" lon="9.4982369"><ele>292.2857142857143</ele><time>2026-03-30T12:29:13.091Z</time></trkpt><trkpt lat="44.8604943" lon="9.4981414"><ele>292.1428571428571</ele><time>2026-03-30T12:29:19.087Z</time></trkpt><trkpt lat="44.8604942" lon="9.4980454"><ele>292.0</ele><time>2026-03-30T12:29:23.882Z</time></trkpt><trkpt lat="44.8605015" lon="9.4979547"><ele>292.0</ele><time>2026-03-30T12:29:31.077Z</time></trkpt><trkpt lat="44.8605057" lon="9.4978634"><ele>292.0</ele><time>2026-03-30T12:29:41.011Z</time></trkpt><trkpt lat="44.8605169" lon="9.4977658"><ele>292.0</ele><time>2026-03-30T12:29:47.027Z</time></trkpt><trkpt lat="44.8605324" lon="9.4976635"><ele>292.0</ele><time>2026-03-30T12:29:53.053Z</time></trkpt><trkpt lat="44.8605303" lon="9.4975611"><ele>292.0</ele><time>2026-03-30T12:29:59.017Z</time></trkpt><trkpt lat="44.8605182" lon="9.497454"><ele>292.0</ele><time>2026-03-30T12:30:05.013Z</time></trkpt><trkpt lat="44.8605222" lon="9.4973521"><ele>292.0</ele><time>2026-03-30T12:30:10.068Z</time></trkpt><trkpt lat="44.860519" lon="9.4972559"><ele>292.0</ele><time>2026-03-30T12:30:16.045Z</time></trkpt><trkpt lat="44.8604945" lon="9.4971718"><ele>292.0</ele><time>2026-03-30T12:30:21.112Z</time></trkpt><trkpt lat="44.8604816" lon="9.4970745"><ele>292.0</ele><time>2026-03-30T12:30:26.998Z</time></trkpt><trkpt lat="44.8604714" lon="9.496981"><ele>292.0</ele><time>2026-03-30T12:30:32.105Z</time></trkpt><trkpt lat="44.8604789" lon="9.4968838"><ele>292.0</ele><time>2026-03-30T12:30:37.99Z</time></trkpt><trkpt lat="44.8604915" lon="9.4967798"><ele>292.0</ele><time>2026-03-30T12:30:43.947Z</time></trkpt><trkpt lat="44.8605107" lon="9.4966745"><ele>292.0</ele><time>2026-03-30T12:31:03.953Z</time></trkpt><trkpt lat="44.8605364" lon="9.4965728"><ele>292.1428571428571</ele><time>2026-03-30T12:31:09.046Z</time></trkpt><trkpt lat="44.8605631" lon="9.4964761"><ele>292.2857142857143</ele><time>2026-03-30T12:31:14.082Z</time></trkpt><trkpt lat="44.8605862" lon="9.4963898"><ele>292.42857142857144</ele><time>2026-03-30T12:31:20.067Z</time></trkpt><trkpt lat="44.8606019" lon="9.4962884"><ele>292.57142857142856</ele><time>2026-03-30T12:31:27.033Z</time></trkpt><trkpt lat="44.8606035" lon="9.4961974"><ele>292.7142857142857</ele><time>2026-03-30T12:31:31.948Z</time></trkpt><trkpt lat="44.8606126" lon="9.4960961"><ele>292.85714285714283</ele><time>2026-03-30T12:31:36.996Z</time></trkpt><trkpt lat="44.8606164" lon="9.4960071"><ele>293.0</ele><time>2026-03-30T12:31:42.023Z</time></trkpt><trkpt lat="44.8606266" lon="9.4959093"><ele>293.1428571428571</ele><time>2026-03-30T12:31:48.018Z</time></trkpt><trkpt lat="44.8606236" lon="9.4958165"><ele>293.2857142857143</ele><time>2026-03-30T12:31:53.982Z</time></trkpt><trkpt lat="44.8606323" lon="9.4957276"><ele>293.42857142857144</ele><time>2026-03-30T12:32:00.009Z</time></trkpt><trkpt lat="44.860637" lon="9.4956381"><ele>293.57142857142856</ele><time>2026-03-30T12:32:06.005Z</time></trkpt><trkpt lat="44.8606427" lon="9.4955473"><ele>293.7142857142857</ele><time>2026-03-30T12:32:11.041Z</time></trkpt><trkpt lat="44.8606478" lon="9.4954528"><ele>293.85714285714283</ele><time>2026-03-30T12:32:16.077Z</time></trkpt><trkpt lat="44.8606554" lon="9.495362"><ele>294.0</ele><time>2026-03-30T12:32:22.073Z</time></trkpt><trkpt lat="44.8606663" lon="9.4952629"><ele>294.14285714285717</ele><time>2026-03-30T12:32:28.048Z</time></trkpt><trkpt lat="44.8606848" lon="9.4951723"><ele>294.2857142857143</ele><time>2026-03-30T12:32:33.004Z</time></trkpt><trkpt lat="44.8606964" lon="9.4950846"><ele>294.42857142857144</ele><time>2026-03-30T12:32:39.099Z</time></trkpt><trkpt lat="44.8606935" lon="9.4949798"><ele>294.57142857142856</ele><time>2026-03-30T12:32:45.107Z</time></trkpt><trkpt lat="44.8606952" lon="9.4948849"><ele>294.7142857142857</ele><time>2026-03-30T12:32:51.09Z</time></trkpt><trkpt lat="44.8607127" lon="9.4947907"><ele>294.8571428571429</ele><time>2026-03-30T12:32:58.946Z</time></trkpt><trkpt lat="44.860732" lon="9.4946898"><ele>295.0</ele><time>2026-03-30T12:33:04.04Z</time></trkpt><trkpt lat="44.86075" lon="9.4945946"><ele>294.8571428571429</ele><time>2026-03-30T12:33:09.907Z</time></trkpt><trkpt lat="44.8607763" lon="9.4944959"><ele>294.7142857142857</ele><time>2026-03-30T12:33:16.029Z</time></trkpt><trkpt lat="44.8607996" lon="9.4943974"><ele>294.57142857142856</ele><time>2026-03-30T12:33:21.086Z</time></trkpt><trkpt lat="44.8608238" lon="9.4943111"><ele>294.42857142857144</ele><time>2026-03-30T12:33:28.022Z</time></trkpt><trkpt lat="44.860854" lon="9.4942248"><ele>294.2857142857143</ele><time>2026-03-30T12:33:33.059Z</time></trkpt><trkpt lat="44.8608884" lon="9.4941389"><ele>294.14285714285717</ele><time>2026-03-30T12:33:39.053Z</time></trkpt><trkpt lat="44.860906" lon="9.4940459"><ele>294.0</ele><time>2026-03-30T12:33:43.999Z</time></trkpt><trkpt lat="44.8609198" lon="9.4939431"><ele>294.0</ele><time>2026-03-30T12:33:50.086Z</time></trkpt><trkpt lat="44.8609336" lon="9.4938422"><ele>294.0</ele><time>2026-03-30T12:33:55.913Z</time></trkpt><trkpt lat="44.8609531" lon="9.4937519"><ele>294.0</ele><time>2026-03-30T12:34:00.972Z</time></trkpt><trkpt lat="44.8609491" lon="9.4936511"><ele>294.0</ele><time>2026-03-30T12:34:21.021Z</time></trkpt><trkpt lat="44.8609533" lon="9.4935464"><ele>294.0</ele><time>2026-03-30T12:34:26.058Z</time></trkpt><trkpt lat="44.8609713" lon="9.4934483"><ele>294.0</ele><time>2026-03-30T12:34:30.983Z</time></trkpt><trkpt lat="44.8609826" lon="9.4933471"><ele>294.0</ele><time>2026-03-30T12:34:36.93Z</time></trkpt><trkpt lat="44.8609742" lon="9.4932445"><ele>295.57142857142856</ele><time>2026-03-30T12:34:43.085Z</time></trkpt><trkpt lat="44.8609751" lon="9.4931511"><ele>297.1428571428571</ele><time>2026-03-30T12:34:48.002Z</time></trkpt><trkpt lat="44.8609782" lon="9.4930576"><ele>298.7142857142857</ele><time>2026-03-30T12:34:53.083Z</time></trkpt><trkpt lat="44.8609664" lon="9.4929614"><ele>300.2857142857143</ele><time>2026-03-30T12:34:59.032Z</time></trkpt><trkpt lat="44.8609533" lon="9.4928645"><ele>301.85714285714283</ele><time>2026-03-30T12:35:05.994Z</time></trkpt><trkpt lat="44.860955" lon="9.4927715"><ele>303.42857142857144</ele><time>2026-03-30T12:35:11.023Z</time></trkpt><trkpt lat="44.8609582" lon="9.492672"><ele>305.0</ele><time>2026-03-30T12:35:15.927Z</time></trkpt><trkpt lat="44.8609819" lon="9.492584"><ele>305.8571428571429</ele><time>2026-03-30T12:35:21.028Z</time></trkpt><trkpt lat="44.8610093" lon="9.4924877"><ele>306.71428571428567</ele><time>2026-03-30T12:35:28.049Z</time></trkpt><trkpt lat="44.8610201" lon="9.4923879"><ele>307.57142857142856</ele><time>2026-03-30T12:35:34.045Z</time></trkpt><trkpt lat="44.8610303" lon="9.4922966"><ele>308.42857142857144</ele><time>2026-03-30T12:35:41.089Z</time></trkpt><trkpt lat="44.8610288" lon="9.4922069"><ele>309.28571428571433</ele><time>2026-03-30T12:35:47.003Z</time></trkpt><trkpt lat="44.861041" lon="9.492114"><ele>310.1428571428571</ele><time>2026-03-30T12:35:52.03Z</time></trkpt><trkpt lat="44.8610616" lon="9.4920197"><ele>311.0</ele><time>2026-03-30T12:35:57.067Z</time></trkpt><trkpt lat="44.8610684" lon="9.4919308"><ele>311.0</ele><time>2026-03-30T12:36:04.57Z</time></trkpt><trkpt lat="44.8611016" lon="9.4918421"><ele>311.0</ele><time>2026-03-30T12:36:12.055Z</time></trkpt><trkpt lat="44.8611369" lon="9.491762"><ele>311.0</ele><time>2026-03-30T12:36:17.091Z</time></trkpt><trkpt lat="44.8611633" lon="9.4916679"><ele>311.0</ele><time>2026-03-30T12:36:24.045Z</time></trkpt><trkpt lat="44.8612219" lon="9.4915979"><ele>311.0</ele><time>2026-03-30T12:36:30.041Z</time></trkpt><trkpt lat="44.8612394" lon="9.4915015"><ele>311.0</ele><time>2026-03-30T12:36:34.909Z</time></trkpt><trkpt lat="44.8612484" lon="9.4914077"><ele>311.0</ele><time>2026-03-30T12:36:39.946Z</time></trkpt><trkpt lat="44.8612613" lon="9.4913091"><ele>311.2857142857143</ele><time>2026-03-30T12:36:45.03Z</time></trkpt><trkpt lat="44.861283" lon="9.4912125"><ele>311.5714285714286</ele><time>2026-03-30T12:36:50.048Z</time></trkpt><trkpt lat="44.8612749" lon="9.4911087"><ele>311.8571428571429</ele><time>2026-03-30T12:36:56.072Z</time></trkpt><trkpt lat="44.8612184" lon="9.491033"><ele>312.1428571428571</ele><time>2026-03-30T12:37:03.016Z</time></trkpt><trkpt lat="44.8611457" lon="9.4910159"><ele>312.42857142857144</ele><time>2026-03-30T12:37:08.093Z</time></trkpt><trkpt lat="44.8610727" lon="9.491004"><ele>312.7142857142857</ele><time>2026-03-30T12:37:13.049Z</time></trkpt><trkpt lat="44.8609988" lon="9.4910025"><ele>313.0</ele><time>2026-03-30T12:37:19.002Z</time></trkpt><trkpt lat="44.8609275" lon="9.4909902"><ele>313.0</ele><time>2026-03-30T12:37:25.079Z</time></trkpt><trkpt lat="44.86086" lon="9.4909864"><ele>313.0</ele><time>2026-03-30T12:37:29.996Z</time></trkpt><trkpt lat="44.8607923" lon="9.4909951"><ele>313.0</ele><time>2026-03-30T12:37:35.995Z</time></trkpt><trkpt lat="44.8607222" lon="9.4910244"><ele>313.0</ele><time>2026-03-30T12:37:43.066Z</time></trkpt><trkpt lat="44.8606574" lon="9.4910576"><ele>313.0</ele><time>2026-03-30T12:37:49.059Z</time></trkpt><trkpt lat="44.860591" lon="9.4910922"><ele>313.0</ele><time>2026-03-30T12:37:55.103Z</time></trkpt><trkpt lat="44.8605335" lon="9.4911285"><ele>313.0</ele><time>2026-03-30T12:37:59.999Z</time></trkpt><trkpt lat="44.8604687" lon="9.4911521"><ele>313.0</ele><time>2026-03-30T12:38:06.086Z</time></trkpt><trkpt lat="44.860404" lon="9.4911581"><ele>313.0</ele><time>2026-03-30T12:38:12Z</time></trkpt><trkpt lat="44.8603343" lon="9.4911752"><ele>313.0</ele><time>2026-03-30T12:38:18.078Z</time></trkpt><trkpt lat="44.8602644" lon="9.4912063"><ele>313.0</ele><time>2026-03-30T12:38:24.074Z</time></trkpt><trkpt lat="44.8602119" lon="9.4912697"><ele>313.0</ele><time>2026-03-30T12:38:31.027Z</time></trkpt><trkpt lat="44.8601436" lon="9.4912676"><ele>313.0</ele><time>2026-03-30T12:38:37.024Z</time></trkpt><trkpt lat="44.8600742" lon="9.4912734"><ele>313.0</ele><time>2026-03-30T12:38:42.059Z</time></trkpt><trkpt lat="44.8600082" lon="9.4912967"><ele>314.0</ele><time>2026-03-30T12:38:47.586Z</time></trkpt><trkpt lat="44.8599389" lon="9.4913115"><ele>315.0</ele><time>2026-03-30T12:38:55.998Z</time></trkpt><trkpt lat="44.8598707" lon="9.4912937"><ele>316.0</ele><time>2026-03-30T12:39:12.067Z</time></trkpt><trkpt lat="44.8598036" lon="9.4912473"><ele>317.0</ele><time>2026-03-30T12:39:18.032Z</time></trkpt><trkpt lat="44.8597381" lon="9.4912003"><ele>318.0</ele><time>2026-03-30T12:39:23.989Z</time></trkpt><trkpt lat="44.8596774" lon="9.4911729"><ele>319.0</ele><time>2026-03-30T12:39:29.044Z</time></trkpt><trkpt lat="44.8596249" lon="9.4911229"><ele>320.0</ele><time>2026-03-30T12:39:35.06Z</time></trkpt><trkpt lat="44.8595739" lon="9.4910565"><ele>320.0</ele><time>2026-03-30T12:39:42.015Z</time></trkpt><trkpt lat="44.8595115" lon="9.4910009"><ele>320.0</ele><time>2026-03-30T12:39:51.01Z</time></trkpt><trkpt lat="44.8594662" lon="9.4909305"><ele>320.0</ele><time>2026-03-30T12:39:57.044Z</time></trkpt><trkpt lat="44.8594153" lon="9.4908757"><ele>320.0</ele><time>2026-03-30T12:40:03.001Z</time></trkpt><trkpt lat="44.859374" lon="9.4907936"><ele>320.0</ele><time>2026-03-30T12:40:08.997Z</time></trkpt><trkpt lat="44.8593288" lon="9.4907166"><ele>320.0</ele><time>2026-03-30T12:40:14.992Z</time></trkpt><trkpt lat="44.8592624" lon="9.4906693"><ele>320.0</ele><time>2026-03-30T12:40:21.001Z</time></trkpt><trkpt lat="44.859206" lon="9.4906079"><ele>319.1428571428571</ele><time>2026-03-30T12:40:26.946Z</time></trkpt><trkpt lat="44.8591501" lon="9.4905406"><ele>318.2857142857143</ele><time>2026-03-30T12:40:33.027Z</time></trkpt><trkpt lat="44.8591021" lon="9.4904782"><ele>317.42857142857144</ele><time>2026-03-30T12:40:38.015Z</time></trkpt><trkpt lat="44.859055" lon="9.4904087"><ele>316.57142857142856</ele><time>2026-03-30T12:40:44.012Z</time></trkpt><trkpt lat="44.8590197" lon="9.4903295"><ele>315.7142857142857</ele><time>2026-03-30T12:40:49.966Z</time></trkpt><trkpt lat="44.8589914" lon="9.4902449"><ele>314.85714285714283</ele><time>2026-03-30T12:40:55.062Z</time></trkpt><trkpt lat="44.8589518" lon="9.4901751"><ele>314.0</ele><time>2026-03-30T12:41:00.079Z</time></trkpt><trkpt lat="44.858907" lon="9.4900984"><ele>315.85714285714283</ele><time>2026-03-30T12:41:05.985Z</time></trkpt><trkpt lat="44.8588658" lon="9.4900208"><ele>317.7142857142857</ele><time>2026-03-30T12:41:10.998Z</time></trkpt><trkpt lat="44.8588221" lon="9.4899401"><ele>319.57142857142856</ele><time>2026-03-30T12:41:16.995Z</time></trkpt><trkpt lat="44.8587743" lon="9.4898618"><ele>321.42857142857144</ele><time>2026-03-30T12:41:23.863Z</time></trkpt><trkpt lat="44.8587329" lon="9.4897869"><ele>323.2857142857143</ele><time>2026-03-30T12:41:30.06Z</time></trkpt><trkpt lat="44.8586917" lon="9.4897065"><ele>325.1428571428571</ele><time>2026-03-30T12:41:36.027Z</time></trkpt><trkpt lat="44.8586581" lon="9.489626"><ele>327.0</ele><time>2026-03-30T12:41:41.934Z</time></trkpt><trkpt lat="44.8586264" lon="9.4895457"><ele>328.42857142857144</ele><time>2026-03-30T12:41:47.948Z</time></trkpt><trkpt lat="44.8585966" lon="9.4894515"><ele>329.8571428571429</ele><time>2026-03-30T12:41:54.043Z</time></trkpt><trkpt lat="44.8585574" lon="9.4893799"><ele>331.28571428571433</ele><time>2026-03-30T12:41:59.079Z</time></trkpt><trkpt lat="44.8585081" lon="9.4893046"><ele>332.7142857142857</ele><time>2026-03-30T12:42:06.007Z</time></trkpt><trkpt lat="44.858458" lon="9.4892404"><ele>334.14285714285717</ele><time>2026-03-30T12:42:12.03Z</time></trkpt><trkpt lat="44.8583958" lon="9.4891872"><ele>335.5714285714286</ele><time>2026-03-30T12:42:18.027Z</time></trkpt><trkpt lat="44.8583284" lon="9.4891477"><ele>337.0</ele><time>2026-03-30T12:42:26.094Z</time></trkpt><trkpt lat="44.8582724" lon="9.4890861"><ele>337.00000000000006</ele><time>2026-03-30T12:42:33.017Z</time></trkpt><trkpt lat="44.8582221" lon="9.4890092"><ele>337.0</ele><time>2026-03-30T12:42:41.052Z</time></trkpt><trkpt lat="44.8581691" lon="9.4889438"><ele>337.0</ele><time>2026-03-30T12:42:47.047Z</time></trkpt><trkpt lat="44.858133" lon="9.4888652"><ele>337.0</ele><time>2026-03-30T12:42:54.003Z</time></trkpt><trkpt lat="44.8581058" lon="9.4887816"><ele>337.0</ele><time>2026-03-30T12:43:01.065Z</time></trkpt><trkpt lat="44.8581065" lon="9.4886908"><ele>337.00000000000006</ele><time>2026-03-30T12:43:07.062Z</time></trkpt><trkpt lat="44.8581554" lon="9.4886181"><ele>337.0</ele><time>2026-03-30T12:43:14.03Z</time></trkpt><trkpt lat="44.8582294" lon="9.4886078"><ele>338.00000000000006</ele><time>2026-03-30T12:43:21.103Z</time></trkpt><trkpt lat="44.8582943" lon="9.4886236"><ele>339.0</ele><time>2026-03-30T12:43:27Z</time></trkpt><trkpt lat="44.8583572" lon="9.4886509"><ele>340.0</ele><time>2026-03-30T12:43:32.045Z</time></trkpt><trkpt lat="44.8584262" lon="9.4886843"><ele>341.0</ele><time>2026-03-30T12:43:37.054Z</time></trkpt><trkpt lat="44.8584952" lon="9.4887059"><ele>342.0</ele><time>2026-03-30T12:43:43.05Z</time></trkpt><trkpt lat="44.8585622" lon="9.4887461"><ele>343.00000000000006</ele><time>2026-03-30T12:43:50.086Z</time></trkpt><trkpt lat="44.8586176" lon="9.4888006"><ele>344.0</ele><time>2026-03-30T12:43:56.053Z</time></trkpt><trkpt lat="44.858663" lon="9.4888725"><ele>344.00000000000006</ele><time>2026-03-30T12:44:03.077Z</time></trkpt><trkpt lat="44.8587104" lon="9.4889388"><ele>344.0</ele><time>2026-03-30T12:44:10.032Z</time></trkpt><trkpt lat="44.8587715" lon="9.488963"><ele>344.0</ele><time>2026-03-30T12:44:16.028Z</time></trkpt><trkpt lat="44.8588334" lon="9.4890029"><ele>344.0</ele><time>2026-03-30T12:44:22.995Z</time></trkpt><trkpt lat="44.8588965" lon="9.4890414"><ele>344.0</ele><time>2026-03-30T12:44:30.058Z</time></trkpt><trkpt lat="44.8589591" lon="9.489087"><ele>344.00000000000006</ele><time>2026-03-30T12:44:36.004Z</time></trkpt><trkpt lat="44.8590104" lon="9.4891577"><ele>344.0</ele><time>2026-03-30T12:44:42.05Z</time></trkpt><trkpt lat="44.8590743" lon="9.4891732"><ele>344.00000000000006</ele><time>2026-03-30T12:44:48.045Z</time></trkpt><trkpt lat="44.8591413" lon="9.4891764"><ele>344.0</ele><time>2026-03-30T12:44:53.081Z</time></trkpt><trkpt lat="44.8592041" lon="9.4891869"><ele>344.0</ele><time>2026-03-30T12:44:59.027Z</time></trkpt><trkpt lat="44.8592707" lon="9.4891854"><ele>344.0</ele><time>2026-03-30T12:45:04.923Z</time></trkpt><trkpt lat="44.8593329" lon="9.4892081"><ele>344.0</ele><time>2026-03-30T12:45:10.068Z</time></trkpt><trkpt lat="44.8594006" lon="9.4892018"><ele>344.00000000000006</ele><time>2026-03-30T12:45:15.995Z</time></trkpt><trkpt lat="44.8594707" lon="9.4892167"><ele>344.0</ele><time>2026-03-30T12:45:21.021Z</time></trkpt><trkpt lat="44.8595389" lon="9.4892477"><ele>345.14285714285717</ele><time>2026-03-30T12:45:27.017Z</time></trkpt><trkpt lat="44.8596126" lon="9.4892629"><ele>346.2857142857143</ele><time>2026-03-30T12:45:33.102Z</time></trkpt><trkpt lat="44.8596831" lon="9.4892785"><ele>347.42857142857144</ele><time>2026-03-30T12:45:39.009Z</time></trkpt><trkpt lat="44.8597536" lon="9.4893119"><ele>348.57142857142856</ele><time>2026-03-30T12:45:45.005Z</time></trkpt><trkpt lat="44.859818" lon="9.4893054"><ele>349.7142857142857</ele><time>2026-03-30T12:45:53.039Z</time></trkpt><trkpt lat="44.8598836" lon="9.489297"><ele>350.8571428571429</ele><time>2026-03-30T12:45:59.704Z</time></trkpt><trkpt lat="44.8599483" lon="9.4893004"><ele>352.0</ele><time>2026-03-30T12:46:05.998Z</time></trkpt><trkpt lat="44.8600168" lon="9.4892831"><ele>352.0</ele><time>2026-03-30T12:46:14.023Z</time></trkpt><trkpt lat="44.8600705" lon="9.4892226"><ele>352.0</ele><time>2026-03-30T12:46:20.989Z</time></trkpt><trkpt lat="44.8601002" lon="9.4891383"><ele>352.0</ele><time>2026-03-30T12:46:28.053Z</time></trkpt><trkpt lat="44.8601308" lon="9.489054"><ele>352.0</ele><time>2026-03-30T12:47:29.027Z</time></trkpt><trkpt lat="44.8601315" lon="9.4889552"><ele>352.0</ele><time>2026-03-30T12:47:34.006Z</time></trkpt><trkpt lat="44.8601419" lon="9.4888604"><ele>352.0</ele><time>2026-03-30T12:47:39.991Z</time></trkpt><trkpt lat="44.860143" lon="9.4887632"><ele>352.0</ele><time>2026-03-30T12:47:45.998Z</time></trkpt><trkpt lat="44.8601317" lon="9.4886744"><ele>353.0</ele><time>2026-03-30T12:47:51.032Z</time></trkpt><trkpt lat="44.860136" lon="9.4885743"><ele>354.0</ele><time>2026-03-30T12:47:59.068Z</time></trkpt><trkpt lat="44.8601316" lon="9.488475"><ele>355.0</ele><time>2026-03-30T12:48:05.063Z</time></trkpt><trkpt lat="44.8600883" lon="9.4883945"><ele>356.0</ele><time>2026-03-30T12:48:10Z</time></trkpt><trkpt lat="44.8600349" lon="9.4883352"><ele>357.0</ele><time>2026-03-30T12:48:20.071Z</time></trkpt><trkpt lat="44.8599791" lon="9.4882871"><ele>358.0</ele><time>2026-03-30T12:48:26.047Z</time></trkpt><trkpt lat="44.8599528" lon="9.4882048"><ele>359.0</ele><time>2026-03-30T12:48:32.062Z</time></trkpt><trkpt lat="44.8599113" lon="9.4881192"><ele>359.0</ele><time>2026-03-30T12:48:38.039Z</time></trkpt><trkpt lat="44.8598719" lon="9.4880448"><ele>359.0</ele><time>2026-03-30T12:48:45.004Z</time></trkpt><trkpt lat="44.8598143" lon="9.4879948"><ele>359.0</ele><time>2026-03-30T12:48:53.027Z</time></trkpt><trkpt lat="44.8597596" lon="9.4879434"><ele>359.0</ele><time>2026-03-30T12:49:01.061Z</time></trkpt><trkpt lat="44.8597181" lon="9.4878747"><ele>359.0</ele><time>2026-03-30T12:49:09.007Z</time></trkpt><trkpt lat="44.8596837" lon="9.4877999"><ele>359.0</ele><time>2026-03-30T12:49:17.009Z</time></trkpt><trkpt lat="44.8596332" lon="9.487729"><ele>359.0</ele><time>2026-03-30T12:49:25.044Z</time></trkpt><trkpt lat="44.8595745" lon="9.4876825"><ele>359.57142857142856</ele><time>2026-03-30T12:49:31.999Z</time></trkpt><trkpt lat="44.8595223" lon="9.4876217"><ele>360.14285714285717</ele><time>2026-03-30T12:49:43.999Z</time></trkpt><trkpt lat="44.8594616" lon="9.4875817"><ele>360.71428571428567</ele><time>2026-03-30T12:49:57.061Z</time></trkpt><trkpt lat="44.8593934" lon="9.4875645"><ele>361.2857142857143</ele><time>2026-03-30T12:50:03.057Z</time></trkpt><trkpt lat="44.8593283" lon="9.4875443"><ele>361.85714285714283</ele><time>2026-03-30T12:50:22.003Z</time></trkpt><trkpt lat="44.8592768" lon="9.4874684"><ele>362.4285714285714</ele><time>2026-03-30T12:50:27.998Z</time></trkpt><trkpt lat="44.859236" lon="9.4873948"><ele>363.0</ele><time>2026-03-30T12:50:35.072Z</time></trkpt><trkpt lat="44.8592003" lon="9.4873137"><ele>363.99999999999994</ele><time>2026-03-30T12:50:41.068Z</time></trkpt><trkpt lat="44.8591625" lon="9.4872319"><ele>365.0</ele><time>2026-03-30T12:50:48.024Z</time></trkpt><trkpt lat="44.8591099" lon="9.4871657"><ele>366.0</ele><time>2026-03-30T12:51:28.989Z</time></trkpt><trkpt lat="44.8590638" lon="9.4870813"><ele>367.0</ele><time>2026-03-30T12:51:34.996Z</time></trkpt><trkpt lat="44.8590193" lon="9.4869938"><ele>368.0</ele><time>2026-03-30T12:51:40.087Z</time></trkpt><trkpt lat="44.8589852" lon="9.4868986"><ele>368.99999999999994</ele><time>2026-03-30T12:51:45.037Z</time></trkpt><trkpt lat="44.8589466" lon="9.4868211"><ele>370.0</ele><time>2026-03-30T12:51:51.032Z</time></trkpt><trkpt lat="44.8589046" lon="9.4867398"><ele>370.71428571428567</ele><time>2026-03-30T12:51:58Z</time></trkpt><trkpt lat="44.8588622" lon="9.4866698"><ele>371.42857142857144</ele><time>2026-03-30T12:52:05.063Z</time></trkpt><trkpt lat="44.8588071" lon="9.4866111"><ele>372.1428571428571</ele><time>2026-03-30T12:52:17.056Z</time></trkpt><trkpt lat="44.8587753" lon="9.4865228"><ele>372.85714285714283</ele><time>2026-03-30T12:52:24.011Z</time></trkpt><trkpt lat="44.8587387" lon="9.4864358"><ele>373.57142857142856</ele><time>2026-03-30T12:52:30.091Z</time></trkpt><trkpt lat="44.8586938" lon="9.4863568"><ele>374.2857142857143</ele><time>2026-03-30T12:52:37.089Z</time></trkpt><trkpt lat="44.8586437" lon="9.4862888"><ele>375.0</ele><time>2026-03-30T12:52:44.999Z</time></trkpt><trkpt lat="44.8585966" lon="9.4862132"><ele>375.5714285714286</ele><time>2026-03-30T12:52:53.031Z</time></trkpt><trkpt lat="44.8585591" lon="9.4861323"><ele>376.1428571428571</ele><time>2026-03-30T12:53:01.066Z</time></trkpt><trkpt lat="44.858515" lon="9.4860679"><ele>376.7142857142857</ele><time>2026-03-30T12:53:43.991Z</time></trkpt><trkpt lat="44.85846" lon="9.4860098"><ele>377.28571428571433</ele><time>2026-03-30T12:54:04.028Z</time></trkpt><trkpt lat="44.8583956" lon="9.4859582"><ele>377.8571428571429</ele><time>2026-03-30T12:54:09.999Z</time></trkpt><trkpt lat="44.8583223" lon="9.4859442"><ele>378.42857142857144</ele><time>2026-03-30T12:54:16.05Z</time></trkpt><trkpt lat="44.8582584" lon="9.485963"><ele>379.0</ele><time>2026-03-30T12:54:20.968Z</time></trkpt><trkpt lat="44.858192" lon="9.4859983"><ele>380.7142857142857</ele><time>2026-03-30T12:54:27.022Z</time></trkpt><trkpt lat="44.8581313" lon="9.4860401"><ele>382.42857142857144</ele><time>2026-03-30T12:54:33.019Z</time></trkpt><trkpt lat="44.8580745" lon="9.4860798"><ele>384.1428571428571</ele><time>2026-03-30T12:54:39.989Z</time></trkpt><trkpt lat="44.8580105" lon="9.4861204"><ele>385.8571428571429</ele><time>2026-03-30T12:54:45.986Z</time></trkpt><trkpt lat="44.8579408" lon="9.4861449"><ele>387.57142857142856</ele><time>2026-03-30T12:54:54.005Z</time></trkpt><trkpt lat="44.8578837" lon="9.4861009"><ele>389.2857142857143</ele><time>2026-03-30T12:55:01.08Z</time></trkpt><trkpt lat="44.8578397" lon="9.4860342"><ele>391.0</ele><time>2026-03-30T12:55:08.997Z</time></trkpt><trkpt lat="44.8577992" lon="9.4859621"><ele>390.99999999999994</ele><time>2026-03-30T12:55:14.997Z</time></trkpt><trkpt lat="44.857746" lon="9.4859033"><ele>391.0</ele><time>2026-03-30T12:55:23.025Z</time></trkpt><trkpt lat="44.857685" lon="9.4858592"><ele>391.0</ele><time>2026-03-30T12:55:30.071Z</time></trkpt><trkpt lat="44.8576372" lon="9.4857963"><ele>391.0</ele><time>2026-03-30T12:55:35.986Z</time></trkpt><trkpt lat="44.8575836" lon="9.4857383"><ele>391.0</ele><time>2026-03-30T12:55:42.07Z</time></trkpt><trkpt lat="44.8575309" lon="9.4856783"><ele>390.99999999999994</ele><time>2026-03-30T12:55:49.068Z</time></trkpt><trkpt lat="44.8574715" lon="9.485631"><ele>391.0</ele><time>2026-03-30T12:55:56.003Z</time></trkpt><trkpt lat="44.8574354" lon="9.4855516"><ele>391.71428571428567</ele><time>2026-03-30T12:56:03.005Z</time></trkpt><trkpt lat="44.8574004" lon="9.4854712"><ele>392.42857142857144</ele><time>2026-03-30T12:56:08.988Z</time></trkpt><trkpt lat="44.8573757" lon="9.4853878"><ele>393.1428571428571</ele><time>2026-03-30T12:56:16.029Z</time></trkpt><trkpt lat="44.8573641" lon="9.4852894"><ele>393.85714285714283</ele><time>2026-03-30T12:56:24.064Z</time></trkpt><trkpt lat="44.8573178" lon="9.4852261"><ele>394.57142857142856</ele><time>2026-03-30T12:56:31.987Z</time></trkpt><trkpt lat="44.8572647" lon="9.4851768"><ele>395.2857142857143</ele><time>2026-03-30T12:56:39.055Z</time></trkpt><trkpt lat="44.8572172" lon="9.4851121"><ele>396.0</ele><time>2026-03-30T12:56:46.996Z</time></trkpt><trkpt lat="44.8571514" lon="9.48509"><ele>397.8571428571429</ele><time>2026-03-30T12:56:57.043Z</time></trkpt><trkpt lat="44.8570867" lon="9.4851046"><ele>399.71428571428567</ele><time>2026-03-30T12:57:06.037Z</time></trkpt><trkpt lat="44.857019" lon="9.4851266"><ele>401.57142857142856</ele><time>2026-03-30T12:57:13.001Z</time></trkpt><trkpt lat="44.8569572" lon="9.4851647"><ele>403.42857142857144</ele><time>2026-03-30T12:57:18.999Z</time></trkpt><trkpt lat="44.8568879" lon="9.4851441"><ele>405.28571428571433</ele><time>2026-03-30T12:57:27.023Z</time></trkpt><trkpt lat="44.8568187" lon="9.4851268"><ele>407.1428571428571</ele><time>2026-03-30T12:57:33.998Z</time></trkpt><trkpt lat="44.8567594" lon="9.4850957"><ele>409.0</ele><time>2026-03-30T12:57:41.053Z</time></trkpt><trkpt lat="44.8567149" lon="9.4850303"><ele>409.4285714285714</ele><time>2026-03-30T12:57:48.071Z</time></trkpt><trkpt lat="44.8566717" lon="9.4849536"><ele>409.8571428571429</ele><time>2026-03-30T12:57:55.084Z</time></trkpt><trkpt lat="44.8566648" lon="9.4848642"><ele>410.2857142857143</ele><time>2026-03-30T12:58:02.111Z</time></trkpt><trkpt lat="44.8566689" lon="9.4847747"><ele>410.71428571428567</ele><time>2026-03-30T12:58:10.075Z</time></trkpt><trkpt lat="44.8566802" lon="9.4846787"><ele>411.1428571428571</ele><time>2026-03-30T12:58:17.998Z</time></trkpt><trkpt lat="44.8566662" lon="9.48459"><ele>411.57142857142856</ele><time>2026-03-30T12:58:27.003Z</time></trkpt><trkpt lat="44.8566403" lon="9.4844938"><ele>412.0</ele><time>2026-03-30T12:58:35.018Z</time></trkpt><trkpt lat="44.8566311" lon="9.4844033"><ele>413.99999999999994</ele><time>2026-03-30T12:58:47.01Z</time></trkpt><trkpt lat="44.8566023" lon="9.4843192"><ele>416.0</ele><time>2026-03-30T12:58:57.084Z</time></trkpt><trkpt lat="44.8565873" lon="9.4842299"><ele>418.0</ele><time>2026-03-30T12:59:07.996Z</time></trkpt><trkpt lat="44.8565646" lon="9.4841441"><ele>420.0</ele><time>2026-03-30T12:59:22.028Z</time></trkpt><trkpt lat="44.8565162" lon="9.4840832"><ele>422.0</ele><time>2026-03-30T12:59:34.95Z</time></trkpt><trkpt lat="44.856451" lon="9.4839572"><ele>423.99999999999994</ele><time>2026-03-30T13:00:14.073Z</time></trkpt><trkpt lat="44.8564069" lon="9.4838849"><ele>426.0</ele><time>2026-03-30T13:00:21.028Z</time></trkpt><trkpt lat="44.8563587" lon="9.4838183"><ele>427.2857142857143</ele><time>2026-03-30T13:00:30.023Z</time></trkpt><trkpt lat="44.8563339" lon="9.4837347"><ele>428.57142857142856</ele><time>2026-03-30T13:00:39.995Z</time></trkpt><trkpt lat="44.8562986" lon="9.4836558"><ele>429.8571428571429</ele><time>2026-03-30T13:00:51.008Z</time></trkpt><trkpt lat="44.8562484" lon="9.483582"><ele>431.1428571428571</ele><time>2026-03-30T13:01:30.085Z</time></trkpt><trkpt lat="44.8562021" lon="9.4835122"><ele>432.42857142857144</ele><time>2026-03-30T13:01:38.996Z</time></trkpt><trkpt lat="44.856164" lon="9.4834397"><ele>433.7142857142857</ele><time>2026-03-30T13:01:47.013Z</time></trkpt><trkpt lat="44.8561321" lon="9.4833557"><ele>435.0</ele><time>2026-03-30T13:01:54.026Z</time></trkpt><trkpt lat="44.8561096" lon="9.4832671"><ele>435.00000000000006</ele><time>2026-03-30T13:02:02.003Z</time></trkpt><trkpt lat="44.8560812" lon="9.4831769"><ele>435.0</ele><time>2026-03-30T13:02:10.999Z</time></trkpt><trkpt lat="44.8560543" lon="9.4830946"><ele>435.0</ele><time>2026-03-30T13:02:18.071Z</time></trkpt><trkpt lat="44.8560189" lon="9.4830105"><ele>435.0</ele><time>2026-03-30T13:02:25.998Z</time></trkpt><trkpt lat="44.8559646" lon="9.4829554"><ele>435.0</ele><time>2026-03-30T13:02:33.062Z</time></trkpt><trkpt lat="44.8558912" lon="9.4829515"><ele>435.00000000000006</ele><time>2026-03-30T13:02:40.948Z</time></trkpt><trkpt lat="44.8558226" lon="9.4829577"><ele>435.0</ele><time>2026-03-30T13:02:46.997Z</time></trkpt><trkpt lat="44.8557517" lon="9.4829593"><ele>435.8571428571429</ele><time>2026-03-30T13:02:54.048Z</time></trkpt><trkpt lat="44.855686" lon="9.4829478"><ele>436.7142857142857</ele><time>2026-03-30T13:03:09.037Z</time></trkpt><trkpt lat="44.8556265" lon="9.4829093"><ele>437.57142857142856</ele><time>2026-03-30T13:03:18.004Z</time></trkpt><trkpt lat="44.8555738" lon="9.4828441"><ele>438.42857142857144</ele><time>2026-03-30T13:03:27.025Z</time></trkpt><trkpt lat="44.8554998" lon="9.4827731"><ele>439.2857142857143</ele><time>2026-03-30T13:04:43.993Z</time></trkpt><trkpt lat="44.8554496" lon="9.4827013"><ele>440.14285714285717</ele><time>2026-03-30T13:04:49.01Z</time></trkpt><trkpt lat="44.8553943" lon="9.4826439"><ele>441.0</ele><time>2026-03-30T13:04:52.989Z</time></trkpt><trkpt lat="44.8553301" lon="9.4825932"><ele>441.57142857142856</ele><time>2026-03-30T13:04:58.007Z</time></trkpt><trkpt lat="44.855245" lon="9.4825876"><ele>442.1428571428571</ele><time>2026-03-30T13:05:25.003Z</time></trkpt><trkpt lat="44.8551858" lon="9.4825364"><ele>442.7142857142857</ele><time>2026-03-30T13:05:30.028Z</time></trkpt><trkpt lat="44.8551286" lon="9.482473"><ele>443.2857142857143</ele><time>2026-03-30T13:05:36.025Z</time></trkpt><trkpt lat="44.8550739" lon="9.4824058"><ele>443.85714285714283</ele><time>2026-03-30T13:05:43.092Z</time></trkpt><trkpt lat="44.8550204" lon="9.4823526"><ele>444.42857142857144</ele><time>2026-03-30T13:05:49.991Z</time></trkpt><trkpt lat="44.8549555" lon="9.4823035"><ele>445.0</ele><time>2026-03-30T13:05:57.012Z</time></trkpt><trkpt lat="44.854899" lon="9.4822635"><ele>445.8571428571429</ele><time>2026-03-30T13:06:03.009Z</time></trkpt><trkpt lat="44.8548395" lon="9.4822284"><ele>446.71428571428567</ele><time>2026-03-30T13:06:10.104Z</time></trkpt><trkpt lat="44.8547822" lon="9.4821684"><ele>447.57142857142856</ele><time>2026-03-30T13:06:17.998Z</time></trkpt><trkpt lat="44.8547162" lon="9.4821229"><ele>448.42857142857144</ele><time>2026-03-30T13:06:25.063Z</time></trkpt><trkpt lat="44.8546515" lon="9.4821066"><ele>449.28571428571433</ele><time>2026-03-30T13:06:33.005Z</time></trkpt><trkpt lat="44.8545881" lon="9.4820637"><ele>450.1428571428571</ele><time>2026-03-30T13:06:40.065Z</time></trkpt><trkpt lat="44.8545348" lon="9.4820043"><ele>451.0</ele><time>2026-03-30T13:06:47.99Z</time></trkpt><trkpt lat="44.8544805" lon="9.4819485"><ele>452.0</ele><time>2026-03-30T13:06:57.024Z</time></trkpt><trkpt lat="44.8544357" lon="9.4818714"><ele>453.0</ele><time>2026-03-30T13:07:07.048Z</time></trkpt><trkpt lat="44.8543739" lon="9.4818394"><ele>454.0</ele><time>2026-03-30T13:07:14.003Z</time></trkpt><trkpt lat="44.8543106" lon="9.4818063"><ele>455.0</ele><time>2026-03-30T13:07:21.949Z</time></trkpt><trkpt lat="44.8542493" lon="9.48178"><ele>456.0</ele><time>2026-03-30T13:07:31.995Z</time></trkpt><trkpt lat="44.8541901" lon="9.4817266"><ele>457.0</ele><time>2026-03-30T13:07:40.989Z</time></trkpt><trkpt lat="44.8541295" lon="9.4816886"><ele>458.0</ele><time>2026-03-30T13:07:48.061Z</time></trkpt><trkpt lat="44.854071" lon="9.4816409"><ele>459.71428571428567</ele><time>2026-03-30T13:07:56.107Z</time></trkpt><trkpt lat="44.8540184" lon="9.4815814"><ele>461.42857142857144</ele><time>2026-03-30T13:08:05.092Z</time></trkpt><trkpt lat="44.8539645" lon="9.4815331"><ele>463.1428571428571</ele><time>2026-03-30T13:08:13.006Z</time></trkpt><trkpt lat="44.8539043" lon="9.481488"><ele>464.85714285714283</ele><time>2026-03-30T13:08:22Z</time></trkpt><trkpt lat="44.8538531" lon="9.4814351"><ele>466.57142857142856</ele><time>2026-03-30T13:08:31.024Z</time></trkpt><trkpt lat="44.8538003" lon="9.481379"><ele>468.2857142857143</ele><time>2026-03-30T13:08:38.07Z</time></trkpt><trkpt lat="44.8537512" lon="9.48132"><ele>470.0</ele><time>2026-03-30T13:08:48.024Z</time></trkpt><trkpt lat="44.853694" lon="9.4812663"><ele>471.4285714285714</ele><time>2026-03-30T13:08:55.94Z</time></trkpt><trkpt lat="44.8535999" lon="9.4812061"><ele>472.8571428571428</ele><time>2026-03-30T13:09:28.079Z</time></trkpt><trkpt lat="44.8535429" lon="9.4811636"><ele>474.2857142857143</ele><time>2026-03-30T13:09:35.002Z</time></trkpt><trkpt lat="44.8534897" lon="9.4811151"><ele>475.71428571428567</ele><time>2026-03-30T13:09:42.111Z</time></trkpt><trkpt lat="44.8534263" lon="9.4810631"><ele>477.1428571428571</ele><time>2026-03-30T13:09:52.065Z</time></trkpt><trkpt lat="44.8533692" lon="9.4810079"><ele>478.57142857142856</ele><time>2026-03-30T13:09:59.02Z</time></trkpt><trkpt lat="44.8533096" lon="9.480968"><ele>480.0</ele><time>2026-03-30T13:10:06.006Z</time></trkpt><trkpt lat="44.8532546" lon="9.4809222"><ele>481.8571428571429</ele><time>2026-03-30T13:10:15.09Z</time></trkpt><trkpt lat="44.8531859" lon="9.4808877"><ele>483.71428571428567</ele><time>2026-03-30T13:10:23.066Z</time></trkpt><trkpt lat="44.8531164" lon="9.4808784"><ele>485.57142857142856</ele><time>2026-03-30T13:10:30.931Z</time></trkpt><trkpt lat="44.8530523" lon="9.4809052"><ele>487.42857142857144</ele><time>2026-03-30T13:10:37.997Z</time></trkpt><trkpt lat="44.8529975" lon="9.480958"><ele>489.28571428571433</ele><time>2026-03-30T13:10:45.004Z</time></trkpt><trkpt lat="44.8529486" lon="9.4810295"><ele>491.1428571428571</ele><time>2026-03-30T13:10:52.027Z</time></trkpt><trkpt lat="44.8528999" lon="9.4810877"><ele>493.0</ele><time>2026-03-30T13:10:58.998Z</time></trkpt><trkpt lat="44.8528422" lon="9.4811239"><ele>493.0</ele><time>2026-03-30T13:11:04.997Z</time></trkpt><trkpt lat="44.8527766" lon="9.4811353"><ele>493.0</ele><time>2026-03-30T13:11:16.013Z</time></trkpt><trkpt lat="44.8526993" lon="9.4810888"><ele>493.0</ele><time>2026-03-30T13:12:01.002Z</time></trkpt><trkpt lat="44.8526634" lon="9.4810111"><ele>493.0</ele><time>2026-03-30T13:12:09.018Z</time></trkpt><trkpt lat="44.8526314" lon="9.480933"><ele>493.0</ele><time>2026-03-30T13:12:18.011Z</time></trkpt><trkpt lat="44.8526512" lon="9.480839"><ele>493.0</ele><time>2026-03-30T13:12:26.046Z</time></trkpt><trkpt lat="44.8527028" lon="9.4807753"><ele>493.0</ele><time>2026-03-30T13:12:34.08Z</time></trkpt><trkpt lat="44.8527521" lon="9.4807184"><ele>493.0</ele><time>2026-03-30T13:12:42Z</time></trkpt><trkpt lat="44.8527951" lon="9.4806519"><ele>493.0</ele><time>2026-03-30T13:12:47.999Z</time></trkpt><trkpt lat="44.8528302" lon="9.480576"><ele>493.0</ele><time>2026-03-30T13:12:55.067Z</time></trkpt><trkpt lat="44.8528588" lon="9.4804898"><ele>493.0</ele><time>2026-03-30T13:13:02.022Z</time></trkpt><trkpt lat="44.8528738" lon="9.4803989"><ele>493.0</ele><time>2026-03-30T13:13:08.019Z</time></trkpt><trkpt lat="44.8528538" lon="9.4803114"><ele>493.0</ele><time>2026-03-30T13:13:15.903Z</time></trkpt><trkpt lat="44.8527858" lon="9.4802831"><ele>493.0</ele><time>2026-03-30T13:13:23.046Z</time></trkpt><trkpt lat="44.8527169" lon="9.4802744"><ele>494.42857142857144</ele><time>2026-03-30T13:13:29.004Z</time></trkpt><trkpt lat="44.8526702" lon="9.480339"><ele>495.8571428571429</ele><time>2026-03-30T13:13:43.083Z</time></trkpt><trkpt lat="44.8526198" lon="9.4803983"><ele>497.28571428571433</ele><time>2026-03-30T13:13:50.108Z</time></trkpt><trkpt lat="44.8525535" lon="9.4804103"><ele>498.7142857142857</ele><time>2026-03-30T13:13:58.024Z</time></trkpt><trkpt lat="44.8524901" lon="9.4803995"><ele>500.1428571428572</ele><time>2026-03-30T13:14:03.99Z</time></trkpt><trkpt lat="44.8524306" lon="9.4803537"><ele>501.5714285714286</ele><time>2026-03-30T13:14:11.094Z</time></trkpt><trkpt lat="44.8524131" lon="9.4802581"><ele>503.0</ele><time>2026-03-30T13:14:19.008Z</time></trkpt><trkpt lat="44.8524195" lon="9.4801665"><ele>505.14285714285717</ele><time>2026-03-30T13:14:26.083Z</time></trkpt><trkpt lat="44.8524375" lon="9.4800745"><ele>507.28571428571433</ele><time>2026-03-30T13:14:33.039Z</time></trkpt><trkpt lat="44.8524262" lon="9.4799868"><ele>509.42857142857144</ele><time>2026-03-30T13:14:39.961Z</time></trkpt><trkpt lat="44.852424" lon="9.4798895"><ele>511.57142857142856</ele><time>2026-03-30T13:14:48.999Z</time></trkpt><trkpt lat="44.8524032" lon="9.4798051"><ele>513.7142857142858</ele><time>2026-03-30T13:14:56.061Z</time></trkpt><trkpt lat="44.8523543" lon="9.4797426"><ele>515.8571428571429</ele><time>2026-03-30T13:15:04.906Z</time></trkpt><trkpt lat="44.8522976" lon="9.4796931"><ele>518.0</ele><time>2026-03-30T13:15:12.997Z</time></trkpt><trkpt lat="44.852237" lon="9.4796549"><ele>518.0</ele><time>2026-03-30T13:15:20.045Z</time></trkpt><trkpt lat="44.8521758" lon="9.4796315"><ele>518.0</ele><time>2026-03-30T13:15:27.999Z</time></trkpt><trkpt lat="44.8521096" lon="9.479625"><ele>518.0</ele><time>2026-03-30T13:15:36.084Z</time></trkpt><trkpt lat="44.852045" lon="9.4796021"><ele>518.0</ele><time>2026-03-30T13:15:44.999Z</time></trkpt><trkpt lat="44.8519786" lon="9.4795762"><ele>518.0</ele><time>2026-03-30T13:15:53.998Z</time></trkpt><trkpt lat="44.8519163" lon="9.4795479"><ele>518.0</ele><time>2026-03-30T13:16:02.016Z</time></trkpt><trkpt lat="44.8518515" lon="9.4795395"><ele>518.0</ele><time>2026-03-30T13:16:11.009Z</time></trkpt><trkpt lat="44.8517891" lon="9.4795147"><ele>520.8571428571429</ele><time>2026-03-30T13:16:18Z</time></trkpt><trkpt lat="44.8517214" lon="9.4794747"><ele>523.7142857142858</ele><time>2026-03-30T13:16:25.086Z</time></trkpt><trkpt lat="44.8516569" lon="9.4794319"><ele>526.5714285714286</ele><time>2026-03-30T13:16:31.027Z</time></trkpt><trkpt lat="44.8516011" lon="9.4793773"><ele>529.4285714285714</ele><time>2026-03-30T13:16:38.001Z</time></trkpt><trkpt lat="44.851556" lon="9.4793132"><ele>532.2857142857143</ele><time>2026-03-30T13:16:45.064Z</time></trkpt><trkpt lat="44.8515114" lon="9.4792466"><ele>535.1428571428571</ele><time>2026-03-30T13:16:52.02Z</time></trkpt><trkpt lat="44.8514704" lon="9.4791791"><ele>538.0</ele><time>2026-03-30T13:17:00.054Z</time></trkpt><trkpt lat="44.8514072" lon="9.4792336"><ele>538.0</ele><time>2026-03-30T13:17:47.042Z</time></trkpt><trkpt lat="44.8513865" lon="9.4793218"><ele>538.0</ele><time>2026-03-30T13:17:51.997Z</time></trkpt><trkpt lat="44.8513882" lon="9.4794192"><ele>538.0</ele><time>2026-03-30T13:17:58.074Z</time></trkpt><trkpt lat="44.8513846" lon="9.479509"><ele>538.0</ele><time>2026-03-30T13:18:02.992Z</time></trkpt><trkpt lat="44.8513659" lon="9.4795982"><ele>538.0</ele><time>2026-03-30T13:18:10.065Z</time></trkpt><trkpt lat="44.8513403" lon="9.4796825"><ele>538.0</ele><time>2026-03-30T13:18:14.999Z</time></trkpt><trkpt lat="44.8513138" lon="9.479774"><ele>538.0</ele><time>2026-03-30T13:18:20.994Z</time></trkpt><trkpt lat="44.8512719" lon="9.4798587"><ele>537.0</ele><time>2026-03-30T13:18:27Z</time></trkpt><trkpt lat="44.8512332" lon="9.4799364"><ele>536.0</ele><time>2026-03-30T13:18:34.049Z</time></trkpt><trkpt lat="44.8511775" lon="9.4799895"><ele>535.0</ele><time>2026-03-30T13:18:41.999Z</time></trkpt><trkpt lat="44.8511095" lon="9.4799851"><ele>534.0</ele><time>2026-03-30T13:18:50.003Z</time></trkpt><trkpt lat="44.8510443" lon="9.4800057"><ele>533.0</ele><time>2026-03-30T13:18:57.072Z</time></trkpt><trkpt lat="44.8509839" lon="9.4800362"><ele>532.0</ele><time>2026-03-30T13:19:03.11Z</time></trkpt><trkpt lat="44.8509234" lon="9.4800608"><ele>531.0</ele><time>2026-03-30T13:19:08.905Z</time></trkpt><trkpt lat="44.8508613" lon="9.4800931"><ele>533.0</ele><time>2026-03-30T13:19:16.019Z</time></trkpt><trkpt lat="44.8507904" lon="9.4801212"><ele>535.0</ele><time>2026-03-30T13:19:23.904Z</time></trkpt><trkpt lat="44.8507208" lon="9.4801185"><ele>537.0</ele><time>2026-03-30T13:19:30.049Z</time></trkpt><trkpt lat="44.8506491" lon="9.4801328"><ele>539.0</ele><time>2026-03-30T13:19:39.043Z</time></trkpt><trkpt lat="44.8505899" lon="9.480173"><ele>541.0</ele><time>2026-03-30T13:19:45.089Z</time></trkpt><trkpt lat="44.8505273" lon="9.4801947"><ele>543.0</ele><time>2026-03-30T13:19:51.003Z</time></trkpt><trkpt lat="44.8504645" lon="9.4802437"><ele>545.0</ele><time>2026-03-30T13:19:58.007Z</time></trkpt><trkpt lat="44.8504095" lon="9.4803121"><ele>545.0</ele><time>2026-03-30T13:20:05.064Z</time></trkpt><trkpt lat="44.8503441" lon="9.4803439"><ele>545.0</ele><time>2026-03-30T13:20:12.996Z</time></trkpt><trkpt lat="44.8502935" lon="9.4804044"><ele>545.0</ele><time>2026-03-30T13:20:21.011Z</time></trkpt><trkpt lat="44.8502326" lon="9.4804273"><ele>545.0</ele><time>2026-03-30T13:20:31.085Z</time></trkpt><trkpt lat="44.8501704" lon="9.4803862"><ele>545.0</ele><time>2026-03-30T13:20:40.078Z</time></trkpt><trkpt lat="44.8501132" lon="9.4803473"><ele>545.0</ele><time>2026-03-30T13:20:50.03Z</time></trkpt><trkpt lat="44.8500457" lon="9.4803585"><ele>545.0</ele><time>2026-03-30T13:20:58.064Z</time></trkpt><trkpt lat="44.8499825" lon="9.4803419"><ele>545.1428571428571</ele><time>2026-03-30T13:21:05.029Z</time></trkpt><trkpt lat="44.8499143" lon="9.480336"><ele>545.2857142857143</ele><time>2026-03-30T13:21:13.002Z</time></trkpt><trkpt lat="44.8498604" lon="9.4802865"><ele>545.4285714285714</ele><time>2026-03-30T13:21:23.005Z</time></trkpt><trkpt lat="44.8497976" lon="9.4802632"><ele>545.5714285714286</ele><time>2026-03-30T13:21:34.037Z</time></trkpt><trkpt lat="44.8497505" lon="9.480327"><ele>545.7142857142858</ele><time>2026-03-30T13:21:45.069Z</time></trkpt><trkpt lat="44.8497258" lon="9.4804096"><ele>545.8571428571429</ele><time>2026-03-30T13:21:50.963Z</time></trkpt><trkpt lat="44.8496958" lon="9.4804903"><ele>546.0</ele><time>2026-03-30T13:21:56.911Z</time></trkpt><trkpt lat="44.8496531" lon="9.480585"><ele>546.0</ele><time>2026-03-30T13:22:03.865Z</time></trkpt><trkpt lat="44.8496122" lon="9.4806646"><ele>546.0</ele><time>2026-03-30T13:22:09.431Z</time></trkpt><trkpt lat="44.8495731" lon="9.4807384"><ele>546.0</ele><time>2026-03-30T13:22:15.104Z</time></trkpt><trkpt lat="44.8495139" lon="9.4807813"><ele>546.0</ele><time>2026-03-30T13:22:21.042Z</time></trkpt><trkpt lat="44.8494481" lon="9.4807969"><ele>546.0</ele><time>2026-03-30T13:22:27.038Z</time></trkpt><trkpt lat="44.8493836" lon="9.480789"><ele>546.0</ele><time>2026-03-30T13:22:33.951Z</time></trkpt><trkpt lat="44.8493127" lon="9.4807755"><ele>546.0</ele><time>2026-03-30T13:22:41.067Z</time></trkpt><trkpt lat="44.8492437" lon="9.4808102"><ele>546.7142857142857</ele><time>2026-03-30T13:22:47.063Z</time></trkpt><trkpt lat="44.8491865" lon="9.4808688"><ele>547.4285714285714</ele><time>2026-03-30T13:22:53.058Z</time></trkpt><trkpt lat="44.8491363" lon="9.480947"><ele>548.1428571428571</ele><time>2026-03-30T13:22:59.053Z</time></trkpt><trkpt lat="44.8491016" lon="9.4810356"><ele>548.8571428571429</ele><time>2026-03-30T13:23:05.011Z</time></trkpt><trkpt lat="44.849073" lon="9.4811303"><ele>549.5714285714286</ele><time>2026-03-30T13:23:12.003Z</time></trkpt><trkpt lat="44.8490356" lon="9.4812114"><ele>550.2857142857142</ele><time>2026-03-30T13:23:18Z</time></trkpt><trkpt lat="44.8489845" lon="9.4812792"><ele>551.0</ele><time>2026-03-30T13:23:24Z</time></trkpt><trkpt lat="44.8489361" lon="9.4813572"><ele>550.9999999999999</ele><time>2026-03-30T13:23:30.108Z</time></trkpt><trkpt lat="44.8488953" lon="9.4814307"><ele>551.0</ele><time>2026-03-30T13:23:35.997Z</time></trkpt><trkpt lat="44.8488551" lon="9.4815114"><ele>551.0</ele><time>2026-03-30T13:23:43.06Z</time></trkpt><trkpt lat="44.8488175" lon="9.4815865"><ele>551.0</ele><time>2026-03-30T13:23:50.015Z</time></trkpt><trkpt lat="44.8487894" lon="9.4816737"><ele>551.0</ele><time>2026-03-30T13:23:56.011Z</time></trkpt><trkpt lat="44.84877" lon="9.4817616"><ele>550.9999999999999</ele><time>2026-03-30T13:24:02.99Z</time></trkpt><trkpt lat="44.8487478" lon="9.4818512"><ele>551.0</ele><time>2026-03-30T13:24:08.001Z</time></trkpt><trkpt lat="44.8487259" lon="9.4819447"><ele>550.9999999999999</ele><time>2026-03-30T13:24:12.886Z</time></trkpt><trkpt lat="44.8487301" lon="9.4820446"><ele>551.0</ele><time>2026-03-30T13:24:18.074Z</time></trkpt><trkpt lat="44.8487451" lon="9.4821469"><ele>551.0</ele><time>2026-03-30T13:24:24.011Z</time></trkpt><trkpt lat="44.8487414" lon="9.4822377"><ele>551.0</ele><time>2026-03-30T13:24:28.997Z</time></trkpt><trkpt lat="44.8487317" lon="9.4823362"><ele>551.0</ele><time>2026-03-30T13:24:34.995Z</time></trkpt><trkpt lat="44.8487175" lon="9.4824319"><ele>550.9999999999999</ele><time>2026-03-30T13:24:40.019Z</time></trkpt><trkpt lat="44.848697" lon="9.4825243"><ele>551.0</ele><time>2026-03-30T13:24:45.063Z</time></trkpt><trkpt lat="44.8486914" lon="9.4826264"><ele>549.5714285714286</ele><time>2026-03-30T13:24:51.051Z</time></trkpt><trkpt lat="44.8486797" lon="9.4827245"><ele>548.1428571428571</ele><time>2026-03-30T13:24:57.046Z</time></trkpt><trkpt lat="44.8486685" lon="9.4828123"><ele>546.7142857142858</ele><time>2026-03-30T13:25:02.082Z</time></trkpt><trkpt lat="44.8486574" lon="9.4829035"><ele>545.2857142857142</ele><time>2026-03-30T13:25:08.077Z</time></trkpt><trkpt lat="44.8486337" lon="9.4830079"><ele>543.8571428571429</ele><time>2026-03-30T13:25:12.999Z</time></trkpt><trkpt lat="44.8486251" lon="9.483105"><ele>542.4285714285714</ele><time>2026-03-30T13:25:18.997Z</time></trkpt><trkpt lat="44.8486207" lon="9.4832124"><ele>541.0</ele><time>2026-03-30T13:25:26.082Z</time></trkpt><trkpt lat="44.8486033" lon="9.4833132"><ele>540.7142857142858</ele><time>2026-03-30T13:25:32.058Z</time></trkpt><trkpt lat="44.8485979" lon="9.4834176"><ele>540.4285714285714</ele><time>2026-03-30T13:25:38.055Z</time></trkpt><trkpt lat="44.8486044" lon="9.4835163"><ele>540.1428571428571</ele><time>2026-03-30T13:25:43.091Z</time></trkpt><trkpt lat="44.8485936" lon="9.4836055"><ele>539.8571428571429</ele><time>2026-03-30T13:25:49.085Z</time></trkpt><trkpt lat="44.8485828" lon="9.4837102"><ele>539.5714285714286</ele><time>2026-03-30T13:25:54.948Z</time></trkpt><trkpt lat="44.8485891" lon="9.4837986"><ele>539.2857142857143</ele><time>2026-03-30T13:26:00Z</time></trkpt><trkpt lat="44.8486136" lon="9.4838804"><ele>539.0</ele><time>2026-03-30T13:26:05.033Z</time></trkpt><trkpt lat="44.8486547" lon="9.4839573"><ele>539.0</ele><time>2026-03-30T13:26:10.709Z</time></trkpt><trkpt lat="44.8486678" lon="9.4840509"><ele>539.0</ele><time>2026-03-30T13:26:18.001Z</time></trkpt><trkpt lat="44.8486548" lon="9.4841418"><ele>539.0</ele><time>2026-03-30T13:26:23.95Z</time></trkpt><trkpt lat="44.848654" lon="9.4842337"><ele>539.0</ele><time>2026-03-30T13:26:31.053Z</time></trkpt><trkpt lat="44.8486633" lon="9.4843271"><ele>539.0</ele><time>2026-03-30T13:26:37.048Z</time></trkpt><trkpt lat="44.848698" lon="9.4844127"><ele>539.0</ele><time>2026-03-30T13:26:46.04Z</time></trkpt><trkpt lat="44.8487286" lon="9.4844981"><ele>539.0</ele><time>2026-03-30T13:26:57.071Z</time></trkpt><trkpt lat="44.8487596" lon="9.4845861"><ele>538.7142857142857</ele><time>2026-03-30T13:27:03.067Z</time></trkpt><trkpt lat="44.8487983" lon="9.4846647"><ele>538.4285714285714</ele><time>2026-03-30T13:27:09.072Z</time></trkpt><trkpt lat="44.8488277" lon="9.48476"><ele>538.1428571428571</ele><time>2026-03-30T13:27:15.107Z</time></trkpt><trkpt lat="44.8488468" lon="9.4848497"><ele>537.8571428571429</ele><time>2026-03-30T13:27:23.003Z</time></trkpt><trkpt lat="44.8488656" lon="9.4849492"><ele>537.5714285714286</ele><time>2026-03-30T13:27:30.045Z</time></trkpt><trkpt lat="44.8488709" lon="9.485054"><ele>537.2857142857142</ele><time>2026-03-30T13:27:36.072Z</time></trkpt><trkpt lat="44.848889" lon="9.4851391"><ele>537.0</ele><time>2026-03-30T13:27:40Z</time></trkpt><trkpt lat="44.8489104" lon="9.4852249"><ele>536.9999999999999</ele><time>2026-03-30T13:27:45.998Z</time></trkpt><trkpt lat="44.8489318" lon="9.4853281"><ele>537.0</ele><time>2026-03-30T13:27:53.065Z</time></trkpt><trkpt lat="44.8489631" lon="9.4854297"><ele>537.0</ele><time>2026-03-30T13:27:58.09Z</time></trkpt><trkpt lat="44.849003" lon="9.4855127"><ele>537.0</ele><time>2026-03-30T13:28:03.018Z</time></trkpt><trkpt lat="44.8490514" lon="9.4855892"><ele>537.0</ele><time>2026-03-30T13:28:09.012Z</time></trkpt><trkpt lat="44.8490744" lon="9.4856814"><ele>536.9999999999999</ele><time>2026-03-30T13:28:16.086Z</time></trkpt><trkpt lat="44.8490702" lon="9.4857712"><ele>537.0</ele><time>2026-03-30T13:28:22.082Z</time></trkpt><trkpt lat="44.8490968" lon="9.4858553"><ele>536.9999999999999</ele><time>2026-03-30T13:28:29.035Z</time></trkpt><trkpt lat="44.8491357" lon="9.4859412"><ele>537.0</ele><time>2026-03-30T13:28:35.03Z</time></trkpt><trkpt lat="44.8491856" lon="9.4860053"><ele>537.0</ele><time>2026-03-30T13:28:40.066Z</time></trkpt><trkpt lat="44.8492374" lon="9.4860739"><ele>537.0</ele><time>2026-03-30T13:28:45Z</time></trkpt><trkpt lat="44.8492835" lon="9.4861473"><ele>537.0</ele><time>2026-03-30T13:28:50.934Z</time></trkpt><trkpt lat="44.8493211" lon="9.486219"><ele>536.9999999999999</ele><time>2026-03-30T13:28:56.972Z</time></trkpt><trkpt lat="44.849364" lon="9.4863032"><ele>537.0</ele><time>2026-03-30T13:29:03.086Z</time></trkpt><trkpt lat="44.8494269" lon="9.4863658"><ele>535.8571428571428</ele><time>2026-03-30T13:29:10.041Z</time></trkpt><trkpt lat="44.849427" lon="9.4864655"><ele>534.7142857142857</ele><time>2026-03-30T13:29:19.998Z</time></trkpt><trkpt lat="44.8494116" lon="9.4865526"><ele>533.5714285714286</ele><time>2026-03-30T13:29:28.026Z</time></trkpt><trkpt lat="44.8493531" lon="9.4866104"><ele>532.4285714285713</ele><time>2026-03-30T13:29:37.017Z</time></trkpt><trkpt lat="44.8492859" lon="9.4865953"><ele>531.2857142857142</ele><time>2026-03-30T13:29:43.996Z</time></trkpt><trkpt lat="44.8492286" lon="9.4865472"><ele>530.1428571428571</ele><time>2026-03-30T13:29:54.043Z</time></trkpt><trkpt lat="44.8491629" lon="9.486521"><ele>529.0</ele><time>2026-03-30T13:30:02.076Z</time></trkpt><trkpt lat="44.8491016" lon="9.4864866"><ele>529.0</ele><time>2026-03-30T13:30:09.998Z</time></trkpt><trkpt lat="44.8490377" lon="9.4864581"><ele>529.0</ele><time>2026-03-30T13:30:20.06Z</time></trkpt><trkpt lat="44.8489686" lon="9.4864247"><ele>529.0</ele><time>2026-03-30T13:30:27.064Z</time></trkpt><trkpt lat="44.8489097" lon="9.4863885"><ele>529.0</ele><time>2026-03-30T13:30:33.996Z</time></trkpt><trkpt lat="44.8488405" lon="9.4863688"><ele>529.0</ele><time>2026-03-30T13:30:42.005Z</time></trkpt><trkpt lat="44.8487755" lon="9.4863696"><ele>529.0</ele><time>2026-03-30T13:30:50.084Z</time></trkpt><trkpt lat="44.8487104" lon="9.4863938"><ele>529.0</ele><time>2026-03-30T13:30:57.151Z</time></trkpt><trkpt lat="44.8486576" lon="9.4864437"><ele>529.0</ele><time>2026-03-30T13:31:02.966Z</time></trkpt><trkpt lat="44.8486061" lon="9.4865156"><ele>529.0</ele><time>2026-03-30T13:31:12.026Z</time></trkpt><trkpt lat="44.8485579" lon="9.486573"><ele>529.0</ele><time>2026-03-30T13:31:20.01Z</time></trkpt><trkpt lat="44.8484945" lon="9.4866174"><ele>529.0</ele><time>2026-03-30T13:31:27Z</time></trkpt><trkpt lat="44.8484417" lon="9.486685"><ele>529.0</ele><time>2026-03-30T13:32:29.999Z</time></trkpt><trkpt lat="44.8483967" lon="9.4867483"><ele>529.0</ele><time>2026-03-30T13:32:35.998Z</time></trkpt><trkpt lat="44.8483481" lon="9.4868103"><ele>529.0</ele><time>2026-03-30T13:32:47.057Z</time></trkpt><trkpt lat="44.8482958" lon="9.4868743"><ele>527.4285714285714</ele><time>2026-03-30T13:32:56.491Z</time></trkpt><trkpt lat="44.8482462" lon="9.4869373"><ele>525.8571428571429</ele><time>2026-03-30T13:33:03.947Z</time></trkpt><trkpt lat="44.8482107" lon="9.4870225"><ele>524.2857142857142</ele><time>2026-03-30T13:33:10.03Z</time></trkpt><trkpt lat="44.8481467" lon="9.4870683"><ele>522.7142857142858</ele><time>2026-03-30T13:34:01.001Z</time></trkpt><trkpt lat="44.8481" lon="9.48715"><ele>521.1428571428571</ele><time>2026-03-30T13:34:08Z</time></trkpt><trkpt lat="44.8480483" lon="9.4872167"><ele>519.5714285714286</ele><time>2026-03-30T13:34:13.001Z</time></trkpt><trkpt lat="44.8480136" lon="9.4872956"><ele>518.0</ele><time>2026-03-30T13:34:17.989Z</time></trkpt><trkpt lat="44.8480079" lon="9.4873977"><ele>516.5714285714286</ele><time>2026-03-30T13:34:23.994Z</time></trkpt><trkpt lat="44.8479971" lon="9.4875037"><ele>515.1428571428571</ele><time>2026-03-30T13:34:29.997Z</time></trkpt><trkpt lat="44.8479663" lon="9.4875857"><ele>513.7142857142858</ele><time>2026-03-30T13:34:35.014Z</time></trkpt><trkpt lat="44.8479085" lon="9.4876371"><ele>512.2857142857142</ele><time>2026-03-30T13:34:42.089Z</time></trkpt><trkpt lat="44.8478438" lon="9.4876754"><ele>510.85714285714283</ele><time>2026-03-30T13:34:50.004Z</time></trkpt><trkpt lat="44.8477935" lon="9.4877353"><ele>509.42857142857144</ele><time>2026-03-30T13:34:57.08Z</time></trkpt><trkpt lat="44.8477516" lon="9.4878063"><ele>508.0</ele><time>2026-03-30T13:35:03.074Z</time></trkpt><trkpt lat="44.8476999" lon="9.4878925"><ele>506.42857142857144</ele><time>2026-03-30T13:35:18.065Z</time></trkpt><trkpt lat="44.8476601" lon="9.4879676"><ele>504.85714285714283</ele><time>2026-03-30T13:35:22.998Z</time></trkpt><trkpt lat="44.8476482" lon="9.4880555"><ele>503.2857142857143</ele><time>2026-03-30T13:35:34.013Z</time></trkpt><trkpt lat="44.8476337" lon="9.4881483"><ele>501.7142857142857</ele><time>2026-03-30T13:35:49.988Z</time></trkpt><trkpt lat="44.8476381" lon="9.488243"><ele>500.1428571428571</ele><time>2026-03-30T13:35:57.996Z</time></trkpt><trkpt lat="44.8476662" lon="9.4883408"><ele>498.57142857142856</ele><time>2026-03-30T13:36:04.003Z</time></trkpt><trkpt lat="44.8476843" lon="9.4884465"><ele>497.0</ele><time>2026-03-30T13:36:10.108Z</time></trkpt><trkpt lat="44.84769" lon="9.4885404"><ele>497.0</ele><time>2026-03-30T13:36:15.995Z</time></trkpt><trkpt lat="44.8476945" lon="9.4886368"><ele>497.0</ele><time>2026-03-30T13:36:22.098Z</time></trkpt><trkpt lat="44.8477021" lon="9.4887301"><ele>497.0</ele><time>2026-03-30T13:36:28.075Z</time></trkpt><trkpt lat="44.8477302" lon="9.4888174"><ele>497.0</ele><time>2026-03-30T13:36:39.996Z</time></trkpt><trkpt lat="44.8477798" lon="9.4888758"><ele>497.0</ele><time>2026-03-30T13:36:46.08Z</time></trkpt><trkpt lat="44.8478432" lon="9.4888508"><ele>497.0</ele><time>2026-03-30T13:36:52.076Z</time></trkpt><trkpt lat="44.8478776" lon="9.4887693"><ele>497.0</ele><time>2026-03-30T13:36:57.931Z</time></trkpt><trkpt lat="44.8479029" lon="9.4886758"><ele>497.0</ele><time>2026-03-30T13:37:03.001Z</time></trkpt><trkpt lat="44.8479376" lon="9.4885891"><ele>497.0</ele><time>2026-03-30T13:37:09.003Z</time></trkpt><trkpt lat="44.8479744" lon="9.4885038"><ele>497.0</ele><time>2026-03-30T13:37:14.996Z</time></trkpt><trkpt lat="44.8480288" lon="9.4884348"><ele>497.0</ele><time>2026-03-30T13:37:22.052Z</time></trkpt><trkpt lat="44.8480694" lon="9.4883639"><ele>497.0</ele><time>2026-03-30T13:37:29.997Z</time></trkpt><trkpt lat="44.8481313" lon="9.4883322"><ele>497.0</ele><time>2026-03-30T13:37:36.093Z</time></trkpt><trkpt lat="44.8481978" lon="9.4883566"><ele>497.0</ele><time>2026-03-30T13:37:40.999Z</time></trkpt><trkpt lat="44.8482591" lon="9.4883805"><ele>497.0</ele><time>2026-03-30T13:37:49.996Z</time></trkpt><trkpt lat="44.84832" lon="9.4884093"><ele>497.0</ele><time>2026-03-30T13:38:04.998Z</time></trkpt><trkpt lat="44.8483801" lon="9.4884448"><ele>497.0</ele><time>2026-03-30T13:38:10.975Z</time></trkpt><trkpt lat="44.8484445" lon="9.4884885"><ele>497.0</ele><time>2026-03-30T13:38:18.05Z</time></trkpt><trkpt lat="44.8484875" lon="9.4885639"><ele>497.0</ele><time>2026-03-30T13:38:27.043Z</time></trkpt><trkpt lat="44.8485491" lon="9.4886132"><ele>497.0</ele><time>2026-03-30T13:38:35.076Z</time></trkpt><trkpt lat="44.848602" lon="9.488662"><ele>497.0</ele><time>2026-03-30T13:38:42.934Z</time></trkpt><trkpt lat="44.8486531" lon="9.48873"><ele>494.42857142857144</ele><time>2026-03-30T13:38:50.065Z</time></trkpt><trkpt lat="44.8487013" lon="9.4887995"><ele>491.8571428571429</ele><time>2026-03-30T13:38:58.098Z</time></trkpt><trkpt lat="44.8487625" lon="9.4888567"><ele>489.2857142857143</ele><time>2026-03-30T13:39:06.034Z</time></trkpt><trkpt lat="44.8488207" lon="9.4888928"><ele>486.7142857142857</ele><time>2026-03-30T13:39:12.008Z</time></trkpt><trkpt lat="44.8488802" lon="9.4889402"><ele>484.14285714285717</ele><time>2026-03-30T13:39:18.003Z</time></trkpt><trkpt lat="44.8489448" lon="9.4889751"><ele>481.57142857142856</ele><time>2026-03-30T13:39:25.064Z</time></trkpt><trkpt lat="44.8490082" lon="9.4890155"><ele>479.0</ele><time>2026-03-30T13:39:32.032Z</time></trkpt><trkpt lat="44.8490753" lon="9.4890419"><ele>479.0</ele><time>2026-03-30T13:39:39.007Z</time></trkpt><trkpt lat="44.8491388" lon="9.4890678"><ele>479.0</ele><time>2026-03-30T13:39:46.061Z</time></trkpt><trkpt lat="44.8492053" lon="9.489109"><ele>479.0</ele><time>2026-03-30T13:39:52.056Z</time></trkpt><trkpt lat="44.8492587" lon="9.4891607"><ele>479.0</ele><time>2026-03-30T13:39:58.051Z</time></trkpt><trkpt lat="44.8493151" lon="9.4892142"><ele>479.0</ele><time>2026-03-30T13:40:07.992Z</time></trkpt><trkpt lat="44.8493773" lon="9.4892338"><ele>479.0</ele><time>2026-03-30T13:40:15.017Z</time></trkpt><trkpt lat="44.8494338" lon="9.4892796"><ele>479.0</ele><time>2026-03-30T13:40:43.993Z</time></trkpt><trkpt lat="44.8494913" lon="9.4893242"><ele>479.57142857142856</ele><time>2026-03-30T13:40:50.026Z</time></trkpt><trkpt lat="44.8495424" lon="9.4893911"><ele>480.14285714285717</ele><time>2026-03-30T13:40:57.994Z</time></trkpt><trkpt lat="44.8495724" lon="9.4894695"><ele>480.7142857142857</ele><time>2026-03-30T13:41:03.993Z</time></trkpt><trkpt lat="44.8495587" lon="9.4895571"><ele>481.2857142857143</ele><time>2026-03-30T13:41:11.013Z</time></trkpt><trkpt lat="44.8495006" lon="9.4896149"><ele>481.8571428571429</ele><time>2026-03-30T13:41:19.996Z</time></trkpt><trkpt lat="44.8494327" lon="9.4896451"><ele>482.42857142857144</ele><time>2026-03-30T13:41:47.026Z</time></trkpt><trkpt lat="44.8493639" lon="9.4896815"><ele>483.0</ele><time>2026-03-30T13:41:53.022Z</time></trkpt><trkpt lat="44.8493116" lon="9.4897581"><ele>481.42857142857144</ele><time>2026-03-30T13:41:59.313Z</time></trkpt><trkpt lat="44.8492942" lon="9.4898735"><ele>479.8571428571429</ele><time>2026-03-30T13:42:04.939Z</time></trkpt><trkpt lat="44.849289" lon="9.4899632"><ele>478.2857142857143</ele><time>2026-03-30T13:42:09.092Z</time></trkpt><trkpt lat="44.8493415" lon="9.4900155"><ele>476.7142857142857</ele><time>2026-03-30T13:42:14.996Z</time></trkpt><trkpt lat="44.8493916" lon="9.4900715"><ele>475.14285714285717</ele><time>2026-03-30T13:42:21.921Z</time></trkpt><trkpt lat="44.8494609" lon="9.4901041"><ele>473.57142857142856</ele><time>2026-03-30T13:42:28.955Z</time></trkpt><trkpt lat="44.849527" lon="9.4901408"><ele>472.0</ele><time>2026-03-30T13:42:34.997Z</time></trkpt><trkpt lat="44.8495894" lon="9.4901647"><ele>471.1428571428571</ele><time>2026-03-30T13:42:40.992Z</time></trkpt><trkpt lat="44.8496528" lon="9.4902118"><ele>470.28571428571433</ele><time>2026-03-30T13:42:47.095Z</time></trkpt><trkpt lat="44.8497162" lon="9.4902356"><ele>469.42857142857144</ele><time>2026-03-30T13:42:53.994Z</time></trkpt><trkpt lat="44.8497839" lon="9.4902452"><ele>468.57142857142856</ele><time>2026-03-30T13:43:00.057Z</time></trkpt><trkpt lat="44.8498548" lon="9.4902498"><ele>467.71428571428567</ele><time>2026-03-30T13:43:06.778Z</time></trkpt><trkpt lat="44.8499233" lon="9.4902633"><ele>466.8571428571429</ele><time>2026-03-30T13:43:13.992Z</time></trkpt><trkpt lat="44.8499888" lon="9.4902598"><ele>466.0</ele><time>2026-03-30T13:43:20.098Z</time></trkpt><trkpt lat="44.8500524" lon="9.490266"><ele>466.0</ele><time>2026-03-30T13:43:26.079Z</time></trkpt><trkpt lat="44.8501173" lon="9.4902872"><ele>466.0</ele><time>2026-03-30T13:43:30.942Z</time></trkpt><trkpt lat="44.850191" lon="9.4902878"><ele>466.0</ele><time>2026-03-30T13:43:38.071Z</time></trkpt><trkpt lat="44.8502613" lon="9.49029"><ele>466.0</ele><time>2026-03-30T13:43:45.025Z</time></trkpt><trkpt lat="44.8503244" lon="9.4903138"><ele>466.0</ele><time>2026-03-30T13:43:51.999Z</time></trkpt><trkpt lat="44.8503931" lon="9.4903184"><ele>466.0</ele><time>2026-03-30T13:44:03.076Z</time></trkpt><trkpt lat="44.8504564" lon="9.4903333"><ele>466.0</ele><time>2026-03-30T13:44:09.007Z</time></trkpt><trkpt lat="44.8505203" lon="9.4903274"><ele>466.42857142857144</ele><time>2026-03-30T13:44:14.043Z</time></trkpt><trkpt lat="44.8505893" lon="9.4903514"><ele>466.85714285714283</ele><time>2026-03-30T13:44:20.039Z</time></trkpt><trkpt lat="44.8506549" lon="9.4903676"><ele>467.2857142857143</ele><time>2026-03-30T13:44:26.999Z</time></trkpt><trkpt lat="44.8507193" lon="9.4903778"><ele>467.7142857142857</ele><time>2026-03-30T13:44:35.028Z</time></trkpt><trkpt lat="44.850783" lon="9.4903944"><ele>468.1428571428571</ele><time>2026-03-30T13:44:43.037Z</time></trkpt><trkpt lat="44.8508471" lon="9.4904203"><ele>468.57142857142856</ele><time>2026-03-30T13:44:49.772Z</time></trkpt><trkpt lat="44.8509004" lon="9.4904812"><ele>469.0</ele><time>2026-03-30T13:44:55.052Z</time></trkpt><trkpt lat="44.8509459" lon="9.4905471"><ele>464.85714285714283</ele><time>2026-03-30T13:45:02.007Z</time></trkpt><trkpt lat="44.8509901" lon="9.4906157"><ele>460.7142857142857</ele><time>2026-03-30T13:45:08.994Z</time></trkpt><trkpt lat="44.8510401" lon="9.4906801"><ele>456.57142857142856</ele><time>2026-03-30T13:45:16.037Z</time></trkpt><trkpt lat="44.8510961" lon="9.4907436"><ele>452.42857142857144</ele><time>2026-03-30T13:45:22.991Z</time></trkpt><trkpt lat="44.8511467" lon="9.4908016"><ele>448.2857142857143</ele><time>2026-03-30T13:45:28.998Z</time></trkpt><trkpt lat="44.8512032" lon="9.4908489"><ele>444.1428571428571</ele><time>2026-03-30T13:45:35.277Z</time></trkpt><trkpt lat="44.8512459" lon="9.4909352"><ele>440.0</ele><time>2026-03-30T13:45:43.919Z</time></trkpt><trkpt lat="44.8513021" lon="9.4909821"><ele>439.99999999999994</ele><time>2026-03-30T13:45:51.049Z</time></trkpt><trkpt lat="44.8513644" lon="9.4910357"><ele>440.0</ele><time>2026-03-30T13:45:58.003Z</time></trkpt><trkpt lat="44.8514221" lon="9.4910879"><ele>440.0</ele><time>2026-03-30T13:46:06.037Z</time></trkpt><trkpt lat="44.8514866" lon="9.4911282"><ele>440.0</ele><time>2026-03-30T13:46:15.999Z</time></trkpt><trkpt lat="44.8515478" lon="9.4911563"><ele>440.0</ele><time>2026-03-30T13:46:23.064Z</time></trkpt><trkpt lat="44.8516105" lon="9.4911952"><ele>439.99999999999994</ele><time>2026-03-30T13:46:30.998Z</time></trkpt><trkpt lat="44.8516628" lon="9.4912497"><ele>440.0</ele><time>2026-03-30T13:46:36.997Z</time></trkpt><trkpt lat="44.8517059" lon="9.4913172"><ele>438.2857142857143</ele><time>2026-03-30T13:46:45.007Z</time></trkpt><trkpt lat="44.851758" lon="9.4913707"><ele>436.57142857142856</ele><time>2026-03-30T13:46:53.041Z</time></trkpt><trkpt lat="44.8518083" lon="9.4914418"><ele>434.8571428571429</ele><time>2026-03-30T13:47:00.988Z</time></trkpt><trkpt lat="44.8518601" lon="9.4914926"><ele>433.1428571428571</ele><time>2026-03-30T13:47:08.028Z</time></trkpt><trkpt lat="44.8519077" lon="9.491562"><ele>431.42857142857144</ele><time>2026-03-30T13:47:16.059Z</time></trkpt><trkpt lat="44.8519691" lon="9.4916058"><ele>429.7142857142857</ele><time>2026-03-30T13:47:24Z</time></trkpt><trkpt lat="44.8520324" lon="9.4916454"><ele>428.0</ele><time>2026-03-30T13:47:31.05Z</time></trkpt><trkpt lat="44.852098" lon="9.4916746"><ele>427.8571428571429</ele><time>2026-03-30T13:47:39.083Z</time></trkpt><trkpt lat="44.8521292" lon="9.4917558"><ele>427.7142857142857</ele><time>2026-03-30T13:47:46.998Z</time></trkpt><trkpt lat="44.8521924" lon="9.491797"><ele>427.57142857142856</ele><time>2026-03-30T13:47:53.958Z</time></trkpt><trkpt lat="44.852258" lon="9.4918315"><ele>427.42857142857144</ele><time>2026-03-30T13:48:01.027Z</time></trkpt><trkpt lat="44.8523195" lon="9.4918851"><ele>427.2857142857143</ele><time>2026-03-30T13:48:08.1Z</time></trkpt><trkpt lat="44.8523756" lon="9.4919359"><ele>427.14285714285717</ele><time>2026-03-30T13:48:15.055Z</time></trkpt><trkpt lat="44.8524284" lon="9.4919864"><ele>427.0</ele><time>2026-03-30T13:48:22.009Z</time></trkpt><trkpt lat="44.8524753" lon="9.4920549"><ele>424.85714285714283</ele><time>2026-03-30T13:48:30.042Z</time></trkpt><trkpt lat="44.8525217" lon="9.4921214"><ele>422.7142857142857</ele><time>2026-03-30T13:48:37.955Z</time></trkpt><trkpt lat="44.8525883" lon="9.4921626"><ele>420.57142857142856</ele><time>2026-03-30T13:48:44.07Z</time></trkpt><trkpt lat="44.8526442" lon="9.4922041"><ele>418.42857142857144</ele><time>2026-03-30T13:48:49.106Z</time></trkpt><trkpt lat="44.8526916" lon="9.4922719"><ele>416.2857142857143</ele><time>2026-03-30T13:48:55Z</time></trkpt><trkpt lat="44.8527355" lon="9.4923406"><ele>414.1428571428571</ele><time>2026-03-30T13:49:02.057Z</time></trkpt><trkpt lat="44.8527804" lon="9.4924045"><ele>412.0</ele><time>2026-03-30T13:49:15.995Z</time></trkpt><trkpt lat="44.8528256" lon="9.4924724"><ele>411.57142857142856</ele><time>2026-03-30T13:49:23.038Z</time></trkpt><trkpt lat="44.8528382" lon="9.4925617"><ele>411.1428571428571</ele><time>2026-03-30T13:51:51.004Z</time></trkpt><trkpt lat="44.85283" lon="9.4926517"><ele>410.71428571428567</ele><time>2026-03-30T13:51:57.913Z</time></trkpt><trkpt lat="44.8528237" lon="9.4927512"><ele>410.2857142857143</ele><time>2026-03-30T13:52:04.064Z</time></trkpt><trkpt lat="44.8528064" lon="9.4928464"><ele>409.8571428571429</ele><time>2026-03-30T13:52:11.018Z</time></trkpt><trkpt lat="44.852791" lon="9.4929353"><ele>409.4285714285714</ele><time>2026-03-30T13:52:18Z</time></trkpt><trkpt lat="44.8527756" lon="9.4930245"><ele>409.0</ele><time>2026-03-30T13:52:25.047Z</time></trkpt><trkpt lat="44.8527966" lon="9.4931121"><ele>407.1428571428571</ele><time>2026-03-30T13:52:34.992Z</time></trkpt><trkpt lat="44.8528155" lon="9.4932096"><ele>405.28571428571433</ele><time>2026-03-30T13:52:43.032Z</time></trkpt><trkpt lat="44.8528071" lon="9.4933065"><ele>403.42857142857144</ele><time>2026-03-30T13:52:48.459Z</time></trkpt><trkpt lat="44.8528042" lon="9.4934038"><ele>401.57142857142856</ele><time>2026-03-30T13:52:55.023Z</time></trkpt><trkpt lat="44.8527909" lon="9.4934932"><ele>399.71428571428567</ele><time>2026-03-30T13:53:01.017Z</time></trkpt><trkpt lat="44.8527758" lon="9.493587"><ele>397.8571428571429</ele><time>2026-03-30T13:53:07.012Z</time></trkpt><trkpt lat="44.8527715" lon="9.4936774"><ele>396.0</ele><time>2026-03-30T13:53:14.086Z</time></trkpt><trkpt lat="44.8527689" lon="9.493781"><ele>395.2857142857143</ele><time>2026-03-30T13:53:22.015Z</time></trkpt><trkpt lat="44.8527707" lon="9.4938807"><ele>394.57142857142856</ele><time>2026-03-30T13:53:27.994Z</time></trkpt><trkpt lat="44.8527691" lon="9.4939749"><ele>393.85714285714283</ele><time>2026-03-30T13:53:33.098Z</time></trkpt><trkpt lat="44.8527847" lon="9.4940734"><ele>393.1428571428571</ele><time>2026-03-30T13:53:39.997Z</time></trkpt><trkpt lat="44.8528134" lon="9.4941712"><ele>392.42857142857144</ele><time>2026-03-30T13:53:47.092Z</time></trkpt><trkpt lat="44.8528382" lon="9.4942607"><ele>391.71428571428567</ele><time>2026-03-30T13:53:53.059Z</time></trkpt><trkpt lat="44.8528688" lon="9.4943481"><ele>391.0</ele><time>2026-03-30T13:53:59.049Z</time></trkpt><trkpt lat="44.8529034" lon="9.4944333"><ele>390.99999999999994</ele><time>2026-03-30T13:54:05.044Z</time></trkpt><trkpt lat="44.8529379" lon="9.4945121"><ele>391.0</ele><time>2026-03-30T13:54:10.952Z</time></trkpt><trkpt lat="44.8529727" lon="9.4945955"><ele>391.0</ele><time>2026-03-30T13:54:16.997Z</time></trkpt><trkpt lat="44.8529958" lon="9.4946851"><ele>391.0</ele><time>2026-03-30T13:54:23.028Z</time></trkpt><trkpt lat="44.853025" lon="9.4947701"><ele>391.0</ele><time>2026-03-30T13:54:29.995Z</time></trkpt><trkpt lat="44.8530571" lon="9.4948553"><ele>390.99999999999994</ele><time>2026-03-30T13:54:37.056Z</time></trkpt><trkpt lat="44.8530857" lon="9.4949379"><ele>391.0</ele><time>2026-03-30T13:54:45.055Z</time></trkpt><trkpt lat="44.8531016" lon="9.4950262"><ele>390.85714285714283</ele><time>2026-03-30T13:55:10.028Z</time></trkpt><trkpt lat="44.8531502" lon="9.4950883"><ele>390.7142857142857</ele><time>2026-03-30T13:55:16.023Z</time></trkpt><trkpt lat="44.8532069" lon="9.4951454"><ele>390.57142857142856</ele><time>2026-03-30T13:55:22.995Z</time></trkpt><trkpt lat="44.8532584" lon="9.4952119"><ele>390.42857142857144</ele><time>2026-03-30T13:55:29Z</time></trkpt><trkpt lat="44.8533203" lon="9.4952655"><ele>390.2857142857143</ele><time>2026-03-30T13:55:34.952Z</time></trkpt><trkpt lat="44.8533763" lon="9.4953124"><ele>390.1428571428571</ele><time>2026-03-30T13:55:43.018Z</time></trkpt><trkpt lat="44.8534309" lon="9.495358"><ele>390.0</ele><time>2026-03-30T13:55:49.994Z</time></trkpt><trkpt lat="44.8534839" lon="9.4954255"><ele>388.1428571428571</ele><time>2026-03-30T13:55:57.027Z</time></trkpt><trkpt lat="44.8535484" lon="9.4954756"><ele>386.2857142857143</ele><time>2026-03-30T13:56:02.064Z</time></trkpt><trkpt lat="44.8536102" lon="9.4955234"><ele>384.42857142857144</ele><time>2026-03-30T13:56:09.017Z</time></trkpt><trkpt lat="44.8536503" lon="9.4955936"><ele>382.57142857142856</ele><time>2026-03-30T13:56:15.013Z</time></trkpt><trkpt lat="44.8537023" lon="9.495645"><ele>380.7142857142857</ele><time>2026-03-30T13:56:20.048Z</time></trkpt><trkpt lat="44.8537606" lon="9.4957001"><ele>378.85714285714283</ele><time>2026-03-30T13:56:29.04Z</time></trkpt><trkpt lat="44.8538172" lon="9.4957578"><ele>377.0</ele><time>2026-03-30T13:56:36Z</time></trkpt><trkpt lat="44.8538704" lon="9.4958083"><ele>376.99999999999994</ele><time>2026-03-30T13:56:41.03Z</time></trkpt><trkpt lat="44.8539297" lon="9.49585"><ele>377.0</ele><time>2026-03-30T13:56:46.099Z</time></trkpt><trkpt lat="44.8539928" lon="9.495853"><ele>377.0</ele><time>2026-03-30T13:56:52.06Z</time></trkpt><trkpt lat="44.8540622" lon="9.4958664"><ele>377.0</ele><time>2026-03-30T13:56:58.055Z</time></trkpt><trkpt lat="44.8541319" lon="9.4958887"><ele>377.0</ele><time>2026-03-30T13:57:04.018Z</time></trkpt><trkpt lat="44.854201" lon="9.4959134"><ele>376.99999999999994</ele><time>2026-03-30T13:57:10.045Z</time></trkpt><trkpt lat="44.8542682" lon="9.4959225"><ele>377.0</ele><time>2026-03-30T13:57:16.04Z</time></trkpt><trkpt lat="44.8543297" lon="9.4959484"><ele>375.2857142857143</ele><time>2026-03-30T13:57:22.035Z</time></trkpt><trkpt lat="44.8543753" lon="9.4960108"><ele>373.57142857142856</ele><time>2026-03-30T13:57:27.073Z</time></trkpt><trkpt lat="44.854437" lon="9.4960441"><ele>371.8571428571429</ele><time>2026-03-30T13:57:33.064Z</time></trkpt><trkpt lat="44.8544996" lon="9.4960899"><ele>370.1428571428571</ele><time>2026-03-30T13:57:40.054Z</time></trkpt><trkpt lat="44.8545528" lon="9.4961397"><ele>368.42857142857144</ele><time>2026-03-30T13:57:47.058Z</time></trkpt><trkpt lat="44.8546016" lon="9.496212"><ele>366.7142857142857</ele><time>2026-03-30T13:57:53.055Z</time></trkpt><trkpt lat="44.8546289" lon="9.4963024"><ele>365.0</ele><time>2026-03-30T13:57:59.082Z</time></trkpt><trkpt lat="44.854648" lon="9.4963871"><ele>364.28571428571433</ele><time>2026-03-30T13:58:05.091Z</time></trkpt><trkpt lat="44.8546483" lon="9.4964811"><ele>363.57142857142856</ele><time>2026-03-30T13:58:11.072Z</time></trkpt><trkpt lat="44.8546362" lon="9.496571"><ele>362.8571428571429</ele><time>2026-03-30T13:58:17.066Z</time></trkpt><trkpt lat="44.8546234" lon="9.4966589"><ele>362.14285714285717</ele><time>2026-03-30T13:58:23.062Z</time></trkpt><trkpt lat="44.8546063" lon="9.4967602"><ele>361.42857142857144</ele><time>2026-03-30T13:58:29.056Z</time></trkpt><trkpt lat="44.8545893" lon="9.4968548"><ele>360.7142857142857</ele><time>2026-03-30T13:58:35.05Z</time></trkpt><trkpt lat="44.8545812" lon="9.496948"><ele>360.0</ele><time>2026-03-30T13:58:41.045Z</time></trkpt><trkpt lat="44.854566" lon="9.4970444"><ele>359.7142857142857</ele><time>2026-03-30T13:58:47.039Z</time></trkpt><trkpt lat="44.8545684" lon="9.4971358"><ele>359.42857142857144</ele><time>2026-03-30T13:58:52.076Z</time></trkpt><trkpt lat="44.8545715" lon="9.4972263"><ele>359.14285714285717</ele><time>2026-03-30T13:58:58.069Z</time></trkpt><trkpt lat="44.8545868" lon="9.4973268"><ele>358.8571428571429</ele><time>2026-03-30T13:59:03.998Z</time></trkpt><trkpt lat="44.8546128" lon="9.4974177"><ele>358.57142857142856</ele><time>2026-03-30T13:59:10.076Z</time></trkpt><trkpt lat="44.854637" lon="9.4975148"><ele>358.28571428571433</ele><time>2026-03-30T13:59:16.058Z</time></trkpt><trkpt lat="44.8546547" lon="9.4976125"><ele>358.0</ele><time>2026-03-30T13:59:22.017Z</time></trkpt><trkpt lat="44.854674" lon="9.4977046"><ele>358.00000000000006</ele><time>2026-03-30T13:59:29.1Z</time></trkpt><trkpt lat="44.8547038" lon="9.4977886"><ele>358.0</ele><time>2026-03-30T13:59:34.997Z</time></trkpt><trkpt lat="44.8547178" lon="9.4978805"><ele>358.0</ele><time>2026-03-30T13:59:40.995Z</time></trkpt><trkpt lat="44.8547425" lon="9.4979657"><ele>358.0</ele><time>2026-03-30T13:59:46.995Z</time></trkpt><trkpt lat="44.8547746" lon="9.4980507"><ele>358.0</ele><time>2026-03-30T13:59:54.061Z</time></trkpt><trkpt lat="44.8548101" lon="9.4981262"><ele>358.00000000000006</ele><time>2026-03-30T14:00:00.082Z</time></trkpt><trkpt lat="44.8548496" lon="9.498202"><ele>358.0</ele><time>2026-03-30T14:00:06.05Z</time></trkpt><trkpt lat="44.8548887" lon="9.4982759"><ele>356.8571428571429</ele><time>2026-03-30T14:00:13.003Z</time></trkpt><trkpt lat="44.8549105" lon="9.4983711"><ele>355.7142857142857</ele><time>2026-03-30T14:00:21.035Z</time></trkpt><trkpt lat="44.8549301" lon="9.4984654"><ele>354.57142857142856</ele><time>2026-03-30T14:00:27.994Z</time></trkpt><trkpt lat="44.8549425" lon="9.4985645"><ele>353.42857142857144</ele><time>2026-03-30T14:00:34.002Z</time></trkpt><trkpt lat="44.8549678" lon="9.4986466"><ele>352.2857142857143</ele><time>2026-03-30T14:00:41.057Z</time></trkpt><trkpt lat="44.8549825" lon="9.4987413"><ele>351.14285714285717</ele><time>2026-03-30T14:00:47.052Z</time></trkpt><trkpt lat="44.8550209" lon="9.4988228"><ele>350.0</ele><time>2026-03-30T14:00:53.732Z</time></trkpt><trkpt lat="44.8550565" lon="9.4989328"><ele>349.0</ele><time>2026-03-30T14:01:11.032Z</time></trkpt><trkpt lat="44.8550919" lon="9.4990178"><ele>348.0</ele><time>2026-03-30T14:01:16.067Z</time></trkpt><trkpt lat="44.8551114" lon="9.4991062"><ele>347.0</ele><time>2026-03-30T14:01:20.998Z</time></trkpt><trkpt lat="44.8551487" lon="9.4991901"><ele>346.0</ele><time>2026-03-30T14:01:28.056Z</time></trkpt><trkpt lat="44.8551839" lon="9.4992748"><ele>345.0</ele><time>2026-03-30T14:01:35.01Z</time></trkpt><trkpt lat="44.8552133" lon="9.499355"><ele>344.0</ele><time>2026-03-30T14:01:43.998Z</time></trkpt><trkpt lat="44.8552195" lon="9.4994558"><ele>343.0</ele><time>2026-03-30T14:01:52.998Z</time></trkpt><trkpt lat="44.8552292" lon="9.4995446"><ele>340.57142857142856</ele><time>2026-03-30T14:02:00.066Z</time></trkpt><trkpt lat="44.8552373" lon="9.4996408"><ele>338.1428571428571</ele><time>2026-03-30T14:02:06.991Z</time></trkpt><trkpt lat="44.8552399" lon="9.4997377"><ele>335.7142857142857</ele><time>2026-03-30T14:02:14.094Z</time></trkpt><trkpt lat="44.8552217" lon="9.4998277"><ele>333.2857142857143</ele><time>2026-03-30T14:02:19.009Z</time></trkpt><trkpt lat="44.8551924" lon="9.49991"><ele>330.85714285714283</ele><time>2026-03-30T14:02:25.005Z</time></trkpt><trkpt lat="44.8551597" lon="9.4999861"><ele>328.42857142857144</ele><time>2026-03-30T14:02:30.957Z</time></trkpt><trkpt lat="44.8551367" lon="9.5000714"><ele>326.0</ele><time>2026-03-30T14:02:38.239Z</time></trkpt><trkpt lat="44.8551386" lon="9.5001627"><ele>326.0</ele><time>2026-03-30T14:02:43.738Z</time></trkpt><trkpt lat="44.8551476" lon="9.5002601"><ele>326.0</ele><time>2026-03-30T14:02:50.033Z</time></trkpt><trkpt lat="44.8551656" lon="9.5003627"><ele>326.0</ele><time>2026-03-30T14:02:57.016Z</time></trkpt><trkpt lat="44.8551614" lon="9.5004531"><ele>326.0</ele><time>2026-03-30T14:03:02.05Z</time></trkpt><trkpt lat="44.8551562" lon="9.5005529"><ele>326.0</ele><time>2026-03-30T14:03:10.001Z</time></trkpt><trkpt lat="44.8552134" lon="9.5005906"><ele>326.0</ele><time>2026-03-30T14:03:19.003Z</time></trkpt><trkpt lat="44.8552627" lon="9.5005333"><ele>326.0</ele><time>2026-03-30T14:03:25.015Z</time></trkpt><trkpt lat="44.8553242" lon="9.5005017"><ele>324.2857142857143</ele><time>2026-03-30T14:03:30.002Z</time></trkpt><trkpt lat="44.8553907" lon="9.5005335"><ele>322.57142857142856</ele><time>2026-03-30T14:03:35.02Z</time></trkpt><trkpt lat="44.8553673" lon="9.500627"><ele>320.85714285714283</ele><time>2026-03-30T14:03:46.051Z</time></trkpt><trkpt lat="44.8553496" lon="9.5007198"><ele>319.1428571428571</ele><time>2026-03-30T14:03:51.001Z</time></trkpt><trkpt lat="44.855363" lon="9.5008076"><ele>317.42857142857144</ele><time>2026-03-30T14:03:56.997Z</time></trkpt><trkpt lat="44.8553825" lon="9.5008973"><ele>315.71428571428567</ele><time>2026-03-30T14:04:12.067Z</time></trkpt><trkpt lat="44.8553814" lon="9.5009874"><ele>314.0</ele><time>2026-03-30T14:04:16.996Z</time></trkpt><trkpt lat="44.855374" lon="9.5010777"><ele>313.99999999999994</ele><time>2026-03-30T14:04:22.995Z</time></trkpt><trkpt lat="44.855353" lon="9.5011652"><ele>314.0</ele><time>2026-03-30T14:04:29.074Z</time></trkpt><trkpt lat="44.8553087" lon="9.5012352"><ele>314.0</ele><time>2026-03-30T14:04:36.081Z</time></trkpt><trkpt lat="44.8552598" lon="9.5012914"><ele>314.0</ele><time>2026-03-30T14:04:44.079Z</time></trkpt><trkpt lat="44.8552047" lon="9.5012222"><ele>314.0</ele><time>2026-03-30T14:04:51.121Z</time></trkpt><trkpt lat="44.8551338" lon="9.5012433"><ele>313.99999999999994</ele><time>2026-03-30T14:04:58.781Z</time></trkpt><trkpt lat="44.8550911" lon="9.5013118"><ele>314.0</ele><time>2026-03-30T14:05:04.875Z</time></trkpt><trkpt lat="44.8550549" lon="9.5014023"><ele>313.85714285714283</ele><time>2026-03-30T14:05:11.054Z</time></trkpt><trkpt lat="44.8550439" lon="9.5014915"><ele>313.7142857142857</ele><time>2026-03-30T14:05:16.089Z</time></trkpt><trkpt lat="44.8550245" lon="9.501585"><ele>313.57142857142856</ele><time>2026-03-30T14:05:22.085Z</time></trkpt><trkpt lat="44.8549967" lon="9.5016733"><ele>313.42857142857144</ele><time>2026-03-30T14:05:29.996Z</time></trkpt><trkpt lat="44.8549472" lon="9.5017446"><ele>313.2857142857143</ele><time>2026-03-30T14:05:38.03Z</time></trkpt><trkpt lat="44.8549175" lon="9.5018302"><ele>313.1428571428571</ele><time>2026-03-30T14:05:44.024Z</time></trkpt><trkpt lat="44.8548958" lon="9.5019215"><ele>313.0</ele><time>2026-03-30T14:05:50.996Z</time></trkpt><trkpt lat="44.8549193" lon="9.5020113"><ele>311.7142857142857</ele><time>2026-03-30T14:05:57.003Z</time></trkpt><trkpt lat="44.8549589" lon="9.5020879"><ele>310.42857142857144</ele><time>2026-03-30T14:06:03.087Z</time></trkpt><trkpt lat="44.8550095" lon="9.5021568"><ele>309.1428571428571</ele><time>2026-03-30T14:06:11.014Z</time></trkpt><trkpt lat="44.8550402" lon="9.5022365"><ele>307.8571428571429</ele><time>2026-03-30T14:06:17.999Z</time></trkpt><trkpt lat="44.8550492" lon="9.5023363"><ele>306.5714285714286</ele><time>2026-03-30T14:06:25.028Z</time></trkpt><trkpt lat="44.8550575" lon="9.5024358"><ele>305.2857142857143</ele><time>2026-03-30T14:06:32.997Z</time></trkpt><trkpt lat="44.8550479" lon="9.5025338"><ele>304.0</ele><time>2026-03-30T14:06:41.104Z</time></trkpt><trkpt lat="44.8550515" lon="9.5026277"><ele>304.0</ele><time>2026-03-30T14:06:48.463Z</time></trkpt><trkpt lat="44.8550663" lon="9.502723"><ele>304.0</ele><time>2026-03-30T14:06:56.033Z</time></trkpt><trkpt lat="44.8550597" lon="9.5028175"><ele>304.0</ele><time>2026-03-30T14:07:08.068Z</time></trkpt><trkpt lat="44.855048" lon="9.5029052"><ele>304.0</ele><time>2026-03-30T14:07:17.08Z</time></trkpt><trkpt lat="44.8550267" lon="9.5029969"><ele>304.0</ele><time>2026-03-30T14:07:27.011Z</time></trkpt><trkpt lat="44.855036" lon="9.5030912"><ele>304.0</ele><time>2026-03-30T14:07:34.084Z</time></trkpt><trkpt lat="44.8550394" lon="9.5031827"><ele>304.0</ele><time>2026-03-30T14:07:41.095Z</time></trkpt><trkpt lat="44.8550426" lon="9.5032745"><ele>302.7142857142857</ele><time>2026-03-30T14:07:49.072Z</time></trkpt><trkpt lat="44.8550475" lon="9.5033645"><ele>301.42857142857144</ele><time>2026-03-30T14:07:56.995Z</time></trkpt><trkpt lat="44.8550272" lon="9.5034649"><ele>300.14285714285717</ele><time>2026-03-30T14:08:05.017Z</time></trkpt><trkpt lat="44.8550189" lon="9.503557"><ele>298.8571428571429</ele><time>2026-03-30T14:08:11.011Z</time></trkpt><trkpt lat="44.8550225" lon="9.5036551"><ele>297.57142857142856</ele><time>2026-03-30T14:08:19.044Z</time></trkpt><trkpt lat="44.8550201" lon="9.5037554"><ele>296.28571428571433</ele><time>2026-03-30T14:08:28.036Z</time></trkpt><trkpt lat="44.8550435" lon="9.503842"><ele>295.0</ele><time>2026-03-30T14:08:37.029Z</time></trkpt><trkpt lat="44.8550476" lon="9.5039425"><ele>293.28571428571433</ele><time>2026-03-30T14:08:51.055Z</time></trkpt><trkpt lat="44.8550386" lon="9.5040398"><ele>291.57142857142856</ele><time>2026-03-30T14:08:57.061Z</time></trkpt><trkpt lat="44.8550344" lon="9.5041368"><ele>289.8571428571429</ele><time>2026-03-30T14:09:07.934Z</time></trkpt><trkpt lat="44.8550538" lon="9.5042283"><ele>288.14285714285717</ele><time>2026-03-30T14:09:15.035Z</time></trkpt><trkpt lat="44.8550228" lon="9.5043131"><ele>286.42857142857144</ele><time>2026-03-30T14:09:21.996Z</time></trkpt><trkpt lat="44.8549749" lon="9.5043807"><ele>284.7142857142857</ele><time>2026-03-30T14:09:30.994Z</time></trkpt><trkpt lat="44.8549541" lon="9.5044705"><ele>283.0</ele><time>2026-03-30T14:09:41.05Z</time></trkpt><trkpt lat="44.8549311" lon="9.504556"><ele>280.7142857142857</ele><time>2026-03-30T14:09:51.918Z</time></trkpt><trkpt lat="44.854917" lon="9.5046485"><ele>278.42857142857144</ele><time>2026-03-30T14:10:04.07Z</time></trkpt><trkpt lat="44.8548866" lon="9.5047345"><ele>276.14285714285717</ele><time>2026-03-30T14:10:13.957Z</time></trkpt><trkpt lat="44.8548522" lon="9.5048545"><ele>273.8571428571429</ele><time>2026-03-30T14:10:31.045Z</time></trkpt><trkpt lat="44.8548388" lon="9.5049437"><ele>271.57142857142856</ele><time>2026-03-30T14:10:38.116Z</time></trkpt><trkpt lat="44.8548289" lon="9.5050325"><ele>269.28571428571433</ele><time>2026-03-30T14:10:46.033Z</time></trkpt><trkpt lat="44.8547984" lon="9.5051247"><ele>267.0</ele><time>2026-03-30T14:10:53.022Z</time></trkpt><trkpt lat="44.8547582" lon="9.505212"><ele>267.00000000000006</ele><time>2026-03-30T14:11:02.952Z</time></trkpt><trkpt lat="44.8547197" lon="9.5052962"><ele>267.0</ele><time>2026-03-30T14:11:11.089Z</time></trkpt><trkpt lat="44.8547322" lon="9.5053879"><ele>267.0</ele><time>2026-03-30T14:11:27.996Z</time></trkpt><trkpt lat="44.8547549" lon="9.5054744"><ele>267.0</ele><time>2026-03-30T14:11:33.997Z</time></trkpt><trkpt lat="44.8547943" lon="9.505549"><ele>267.0</ele><time>2026-03-30T14:11:40.993Z</time></trkpt><trkpt lat="44.8548455" lon="9.5056107"><ele>267.00000000000006</ele><time>2026-03-30T14:11:48.017Z</time></trkpt><trkpt lat="44.8548849" lon="9.5056809"><ele>267.0</ele><time>2026-03-30T14:11:57.009Z</time></trkpt><trkpt lat="44.8549218" lon="9.5057584"><ele>265.00000000000006</ele><time>2026-03-30T14:12:05.042Z</time></trkpt><trkpt lat="44.8549584" lon="9.5058358"><ele>263.0</ele><time>2026-03-30T14:12:31.033Z</time></trkpt><trkpt lat="44.8550078" lon="9.5059113"><ele>261.0</ele><time>2026-03-30T14:12:39.036Z</time></trkpt><trkpt lat="44.8550498" lon="9.50598"><ele>259.0</ele><time>2026-03-30T14:12:47.005Z</time></trkpt><trkpt lat="44.8551093" lon="9.5060388"><ele>257.0</ele><time>2026-03-30T14:12:57.075Z</time></trkpt><trkpt lat="44.8551622" lon="9.5060881"><ele>255.00000000000003</ele><time>2026-03-30T14:13:04.029Z</time></trkpt><trkpt lat="44.8552195" lon="9.5061363"><ele>253.00000000000003</ele><time>2026-03-30T14:13:10.995Z</time></trkpt><trkpt lat="44.8552755" lon="9.506189"><ele>251.14285714285717</ele><time>2026-03-30T14:13:18.057Z</time></trkpt><trkpt lat="44.855324" lon="9.5062564"><ele>249.28571428571428</ele><time>2026-03-30T14:13:24.051Z</time></trkpt><trkpt lat="44.8553667" lon="9.5063235"><ele>247.42857142857144</ele><time>2026-03-30T14:13:30.046Z</time></trkpt><trkpt lat="44.855405" lon="9.5063952"><ele>245.57142857142858</ele><time>2026-03-30T14:13:35.076Z</time></trkpt><trkpt lat="44.8554424" lon="9.50647"><ele>243.71428571428572</ele><time>2026-03-30T14:13:40.996Z</time></trkpt><trkpt lat="44.8554482" lon="9.5065735"><ele>241.85714285714286</ele><time>2026-03-30T14:13:47.496Z</time></trkpt><trkpt lat="44.8554347" lon="9.5066703"><ele>240.0</ele><time>2026-03-30T14:13:54.001Z</time></trkpt><trkpt lat="44.8554273" lon="9.5067601"><ele>240.0</ele><time>2026-03-30T14:14:04.096Z</time></trkpt><trkpt lat="44.8554518" lon="9.5068735"><ele>240.0</ele><time>2026-03-30T14:14:21Z</time></trkpt><trkpt lat="44.8554416" lon="9.5069707"><ele>240.0</ele><time>2026-03-30T14:14:27.994Z</time></trkpt><trkpt lat="44.8553819" lon="9.5070354"><ele>240.0</ele><time>2026-03-30T14:14:35.874Z</time></trkpt><trkpt lat="44.8553584" lon="9.507127"><ele>240.0</ele><time>2026-03-30T14:14:44.021Z</time></trkpt><trkpt lat="44.855421" lon="9.5071444"><ele>240.0</ele><time>2026-03-30T14:14:50.941Z</time></trkpt><trkpt lat="44.855486" lon="9.5071235"><ele>240.0</ele><time>2026-03-30T14:14:57.995Z</time></trkpt><trkpt lat="44.855558" lon="9.5071312"><ele>240.42857142857144</ele><time>2026-03-30T14:15:05.001Z</time></trkpt><trkpt lat="44.8556187" lon="9.5071616"><ele>240.85714285714283</ele><time>2026-03-30T14:15:11.072Z</time></trkpt><trkpt lat="44.8556943" lon="9.5072343"><ele>241.28571428571428</ele><time>2026-03-30T14:15:42.998Z</time></trkpt><trkpt lat="44.8557513" lon="9.5072803"><ele>241.71428571428572</ele><time>2026-03-30T14:15:49.001Z</time></trkpt><trkpt lat="44.8557918" lon="9.5073559"><ele>242.14285714285717</ele><time>2026-03-30T14:15:54.987Z</time></trkpt><trkpt lat="44.8558288" lon="9.5074376"><ele>242.57142857142856</ele><time>2026-03-30T14:16:02.998Z</time></trkpt><trkpt lat="44.8558547" lon="9.5075278"><ele>243.0</ele><time>2026-03-30T14:16:10.066Z</time></trkpt><trkpt lat="44.8558865" lon="9.5076072"><ele>243.0</ele><time>2026-03-30T14:16:17.995Z</time></trkpt><trkpt lat="44.8559056" lon="9.5076972"><ele>243.0</ele><time>2026-03-30T14:16:26.999Z</time></trkpt><trkpt lat="44.8559317" lon="9.5077913"><ele>243.0</ele><time>2026-03-30T14:16:35.005Z</time></trkpt><trkpt lat="44.8559663" lon="9.5078765"><ele>243.0</ele><time>2026-03-30T14:16:41.999Z</time></trkpt><trkpt lat="44.8560119" lon="9.507944"><ele>243.0</ele><time>2026-03-30T14:16:49.995Z</time></trkpt><trkpt lat="44.8560677" lon="9.5080633"><ele>243.0</ele><time>2026-03-30T14:17:24.044Z</time></trkpt><trkpt lat="44.8561028" lon="9.5081465"><ele>243.0</ele><time>2026-03-30T14:17:30.997Z</time></trkpt><trkpt lat="44.8561449" lon="9.508215"><ele>245.42857142857142</ele><time>2026-03-30T14:17:45.996Z</time></trkpt><trkpt lat="44.8561884" lon="9.5082866"><ele>247.8571428571429</ele><time>2026-03-30T14:17:52.995Z</time></trkpt><trkpt lat="44.8562429" lon="9.5083349"><ele>250.2857142857143</ele><time>2026-03-30T14:18:02.052Z</time></trkpt><trkpt lat="44.856302" lon="9.5083786"><ele>252.71428571428572</ele><time>2026-03-30T14:18:10.021Z</time></trkpt><trkpt lat="44.8563713" lon="9.5084113"><ele>255.14285714285717</ele><time>2026-03-30T14:18:44.995Z</time></trkpt><trkpt lat="44.8564238" lon="9.5084615"><ele>257.5714285714286</ele><time>2026-03-30T14:18:52.037Z</time></trkpt><trkpt lat="44.856464" lon="9.5085384"><ele>260.0</ele><time>2026-03-30T14:19:00.083Z</time></trkpt><trkpt lat="44.8565" lon="9.5086132"><ele>260.00000000000006</ele><time>2026-03-30T14:19:07.036Z</time></trkpt><trkpt lat="44.8565264" lon="9.5086987"><ele>260.0</ele><time>2026-03-30T14:19:13.992Z</time></trkpt><trkpt lat="44.8565433" lon="9.5087871"><ele>260.0</ele><time>2026-03-30T14:19:22.023Z</time></trkpt><trkpt lat="44.8565674" lon="9.5088716"><ele>260.0</ele><time>2026-03-30T14:19:30.057Z</time></trkpt><trkpt lat="44.8566025" lon="9.5089557"><ele>260.0</ele><time>2026-03-30T14:19:39.048Z</time></trkpt><trkpt lat="44.8566743" lon="9.5090537"><ele>260.00000000000006</ele><time>2026-03-30T14:20:07.989Z</time></trkpt><trkpt lat="44.8567405" lon="9.509081"><ele>260.0</ele><time>2026-03-30T14:20:18.015Z</time></trkpt><trkpt lat="44.8568033" lon="9.5091067"><ele>262.42857142857144</ele><time>2026-03-30T14:20:25.074Z</time></trkpt><trkpt lat="44.856871" lon="9.5090985"><ele>264.8571428571429</ele><time>2026-03-30T14:20:33.003Z</time></trkpt><trkpt lat="44.8569371" lon="9.5090946"><ele>267.2857142857143</ele><time>2026-03-30T14:20:41.996Z</time></trkpt><trkpt lat="44.8570095" lon="9.5091061"><ele>269.7142857142857</ele><time>2026-03-30T14:20:51Z</time></trkpt><trkpt lat="44.8570727" lon="9.5091458"><ele>272.1428571428571</ele><time>2026-03-30T14:20:58.062Z</time></trkpt><trkpt lat="44.8571206" lon="9.5092047"><ele>274.57142857142856</ele><time>2026-03-30T14:21:08.041Z</time></trkpt><trkpt lat="44.8571663" lon="9.509279"><ele>277.0</ele><time>2026-03-30T14:21:20.002Z</time></trkpt><trkpt lat="44.857231" lon="9.5093189"><ele>277.0</ele><time>2026-03-30T14:21:28.035Z</time></trkpt><trkpt lat="44.8572913" lon="9.5093574"><ele>277.0</ele><time>2026-03-30T14:21:34.03Z</time></trkpt><trkpt lat="44.8573605" lon="9.5094145"><ele>277.0</ele><time>2026-03-30T14:22:07.002Z</time></trkpt><trkpt lat="44.8574223" lon="9.5094525"><ele>277.0</ele><time>2026-03-30T14:22:12.038Z</time></trkpt><trkpt lat="44.857459" lon="9.509533"><ele>277.0</ele><time>2026-03-30T14:22:18.998Z</time></trkpt><trkpt lat="44.857482" lon="9.5096278"><ele>277.0</ele><time>2026-03-30T14:22:26.066Z</time></trkpt><trkpt lat="44.857496" lon="9.5097242"><ele>277.0</ele><time>2026-03-30T14:22:33.02Z</time></trkpt><trkpt lat="44.8575022" lon="9.5098165"><ele>277.8333333333333</ele><time>2026-03-30T14:22:42.012Z</time></trkpt><trkpt lat="44.8575245" lon="9.5099026"><ele>278.66666666666663</ele><time>2026-03-30T14:22:50.044Z</time></trkpt><trkpt lat="44.8575367" lon="9.5099935"><ele>279.5</ele><time>2026-03-30T14:22:56.039Z</time></trkpt><trkpt lat="44.8575646" lon="9.5100799"><ele>280.3333333333333</ele><time>2026-03-30T14:23:03.002Z</time></trkpt><trkpt lat="44.8576125" lon="9.5101401"><ele>281.1666666666667</ele><time>2026-03-30T14:23:10.995Z</time></trkpt><trkpt lat="44.8577195" lon="9.5101649"><ele>282.0</ele><time>2026-03-30T14:23:40.042Z</time></trkpt><trkpt lat="44.857815" lon="9.5101966"><ele>284.14285714285717</ele><time>2026-03-30T14:24:04.997Z</time></trkpt><trkpt lat="44.8578818" lon="9.5102151"><ele>286.2857142857143</ele><time>2026-03-30T14:24:10.997Z</time></trkpt><trkpt lat="44.8579476" lon="9.5102497"><ele>288.42857142857144</ele><time>2026-03-30T14:24:18.048Z</time></trkpt><trkpt lat="44.8580169" lon="9.510275"><ele>290.57142857142856</ele><time>2026-03-30T14:24:26.055Z</time></trkpt><trkpt lat="44.8580826" lon="9.5102979"><ele>292.7142857142857</ele><time>2026-03-30T14:24:33.035Z</time></trkpt><trkpt lat="44.8581503" lon="9.5103223"><ele>294.8571428571429</ele><time>2026-03-30T14:24:40.002Z</time></trkpt><trkpt lat="44.8582144" lon="9.5103515"><ele>297.0</ele><time>2026-03-30T14:24:47.064Z</time></trkpt><trkpt lat="44.8582766" lon="9.5103832"><ele>297.8571428571429</ele><time>2026-03-30T14:24:54.012Z</time></trkpt><trkpt lat="44.8583347" lon="9.5104268"><ele>298.7142857142857</ele><time>2026-03-30T14:25:02.05Z</time></trkpt><trkpt lat="44.8583965" lon="9.5104463"><ele>299.57142857142856</ele><time>2026-03-30T14:25:09.004Z</time></trkpt><trkpt lat="44.8584567" lon="9.5104771"><ele>300.42857142857144</ele><time>2026-03-30T14:25:19.076Z</time></trkpt><trkpt lat="44.8585192" lon="9.5104337"><ele>301.2857142857143</ele><time>2026-03-30T14:25:34.994Z</time></trkpt><trkpt lat="44.8585684" lon="9.5103591"><ele>302.14285714285717</ele><time>2026-03-30T14:25:40.057Z</time></trkpt><trkpt lat="44.8586133" lon="9.5102902"><ele>303.0</ele><time>2026-03-30T14:25:46Z</time></trkpt><trkpt lat="44.8586675" lon="9.5102268"><ele>303.7142857142857</ele><time>2026-03-30T14:25:52.111Z</time></trkpt><trkpt lat="44.858729" lon="9.5101726"><ele>304.42857142857144</ele><time>2026-03-30T14:25:57.898Z</time></trkpt><trkpt lat="44.858789" lon="9.5101294"><ele>305.1428571428571</ele><time>2026-03-30T14:26:03.213Z</time></trkpt><trkpt lat="44.8588463" lon="9.5100799"><ele>305.8571428571429</ele><time>2026-03-30T14:26:08.56Z</time></trkpt><trkpt lat="44.8589028" lon="9.5100292"><ele>306.57142857142856</ele><time>2026-03-30T14:26:14Z</time></trkpt><trkpt lat="44.8589547" lon="9.5099593"><ele>307.2857142857143</ele><time>2026-03-30T14:26:21.096Z</time></trkpt><trkpt lat="44.8589904" lon="9.5098811"><ele>308.0</ele><time>2026-03-30T14:26:27.057Z</time></trkpt><trkpt lat="44.8590056" lon="9.5097798"><ele>308.0</ele><time>2026-03-30T14:26:33.051Z</time></trkpt><trkpt lat="44.8590171" lon="9.509689"><ele>308.0</ele><time>2026-03-30T14:26:38.072Z</time></trkpt><trkpt lat="44.8590016" lon="9.5096026"><ele>308.0</ele><time>2026-03-30T14:26:42.957Z</time></trkpt><trkpt lat="44.858985" lon="9.5095139"><ele>308.0</ele><time>2026-03-30T14:26:48.038Z</time></trkpt><trkpt lat="44.8589734" lon="9.5094117"><ele>308.0</ele><time>2026-03-30T14:26:55.002Z</time></trkpt><trkpt lat="44.8589544" lon="9.5093132"><ele>308.0</ele><time>2026-03-30T14:27:01.001Z</time></trkpt><trkpt lat="44.8589561" lon="9.5092076"><ele>308.0</ele><time>2026-03-30T14:27:07.597Z</time></trkpt><trkpt lat="44.8589801" lon="9.5091179"><ele>308.14285714285717</ele><time>2026-03-30T14:27:14.056Z</time></trkpt><trkpt lat="44.8590169" lon="9.5090432"><ele>308.2857142857143</ele><time>2026-03-30T14:27:20.05Z</time></trkpt><trkpt lat="44.8590504" lon="9.5089583"><ele>308.42857142857144</ele><time>2026-03-30T14:27:25.053Z</time></trkpt><trkpt lat="44.8590793" lon="9.5088713"><ele>308.57142857142856</ele><time>2026-03-30T14:27:30.997Z</time></trkpt><trkpt lat="44.8591258" lon="9.508787"><ele>308.7142857142857</ele><time>2026-03-30T14:27:37.052Z</time></trkpt><trkpt lat="44.8591695" lon="9.5087071"><ele>308.8571428571429</ele><time>2026-03-30T14:27:43.071Z</time></trkpt><trkpt lat="44.8592168" lon="9.508637"><ele>309.0</ele><time>2026-03-30T14:27:49.065Z</time></trkpt><trkpt lat="44.8592592" lon="9.5085655"><ele>305.0</ele><time>2026-03-30T14:27:55.06Z</time></trkpt><trkpt lat="44.8593255" lon="9.5085182"><ele>315.0</ele><time>2026-03-30T14:28:02.082Z</time></trkpt><trkpt lat="44.8593881" lon="9.5084868"><ele>315.0</ele><time>2026-03-30T14:28:13.035Z</time></trkpt></trkseg></trk></gpx>